<?xml version="1.0" encoding="UTF-8"?>
<gpx xmlns="http://www.topografix.com/GPX/1/1" xmlns:gpsies="https://www.gpsies.com/GPX/1/0" creator="GPSies https://www.gpsies.com - Roztoky - &amp;#218;n&amp;#283;tice - Oko&amp;#345; - Bude&amp;#269; - Kralupy - Roztoky" version="1.1" xmlns:xsi="http://www.w3.org/2001/XMLSchema-instance" xsi:schemaLocation="http://www.topografix.com/GPX/1/1 http://www.topografix.com/GPX/1/1/gpx.xsd https://www.gpsies.com/GPX/1/0 https://www.gpsies.com/gpsies.xsd">
  <metadata>
    <name>Roztoky - Únětice - Okoř - Budeč - Kralupy - Roztoky</name>
    <author>
      <name>fixit</name>
      <link href="https://www.gpsies.com/mapUser.do?username=fixit">
        <text>fixit on GPSies.com</text>
        <type>GPSiesUserOnWeb</type>
      </link>
    </author>
    <link href="https://www.gpsies.com/map.do?fileId=hdbgldehuwwircby">
      <text>Roztoky - Únětice - Okoř - Budeč - Kralupy - Roztoky on GPSies.com</text>
      <type>trackOnWeb</type>
    </link>
    <time>2019-04-09T19:29:22Z</time>
    <extensions>
      <gpsies:property>round trip</gpsies:property>
      <gpsies:trackLengthMeter>47901.9739934388</gpsies:trackLengthMeter>
      <gpsies:totalAscentMeter>410.0026855</gpsies:totalAscentMeter>
      <gpsies:totalDescentMeter>420.5771484</gpsies:totalDescentMeter>
      <gpsies:minHeightMeter>152.5063477</gpsies:minHeightMeter>
      <gpsies:maxHeightMeter>310.1624756</gpsies:maxHeightMeter>
    </extensions>
  </metadata>
  <trk>
    <name>Roztoky - Únětice - Okoř - Budeč - Kralupy - Roztoky on GPSies.com</name>
    <link href="https://www.gpsies.com/map.do?fileId=hdbgldehuwwircby">
      <type>trackOnWeb</type>
    </link>
    <link href="https://www.gpsies.com/charts/hd/map/hdbgldehuwwircby_map.png">
      <type>elevationChartUrlMap</type>
    </link>
    <link href="https://www.gpsies.com/charts/hd/mapThumb/hdbgldehuwwircby_mapThumb.png">
      <type>elevationChartUrlMapThumb</type>
    </link>
    <link href="https://www.gpsies.com/charts/hd/tab/hdbgldehuwwircby_tab.png">
      <type>elevationChartUrlTab</type>
    </link>
    <trkseg>
      <trkpt lat="50.15799520" lon="14.39749720">
        <ele>181.34582</ele>
        <time>2010-01-01T00:00:00Z</time>
      </trkpt>
      <trkpt lat="50.15797380" lon="14.39743280">
        <ele>175.57788</ele>
        <time>2010-01-01T00:00:01Z</time>
      </trkpt>
      <trkpt lat="50.15810250" lon="14.39741130">
        <ele>181.34582</ele>
        <time>2010-01-01T00:00:04Z</time>
      </trkpt>
      <trkpt lat="50.15795230" lon="14.39693930">
        <ele>181.34582</ele>
        <time>2010-01-01T00:00:12Z</time>
      </trkpt>
      <trkpt lat="50.15778060" lon="14.39661740">
        <ele>182.30712</ele>
        <time>2010-01-01T00:00:19Z</time>
      </trkpt>
      <trkpt lat="50.15782360" lon="14.39651010">
        <ele>182.30712</ele>
        <time>2010-01-01T00:00:21Z</time>
      </trkpt>
      <trkpt lat="50.15780210" lon="14.39651010">
        <ele>183.74902</ele>
        <time>2010-01-01T00:00:22Z</time>
      </trkpt>
      <trkpt lat="50.15769480" lon="14.39633850">
        <ele>182.30712</ele>
        <time>2010-01-01T00:00:25Z</time>
      </trkpt>
      <trkpt lat="50.15735150" lon="14.39569470">
        <ele>181.82641</ele>
        <time>2010-01-01T00:00:39Z</time>
      </trkpt>
      <trkpt lat="50.15687940" lon="14.39492230">
        <ele>182.78784</ele>
        <time>2010-01-01T00:00:56Z</time>
      </trkpt>
      <trkpt lat="50.15617130" lon="14.39361330">
        <ele>184.71057</ele>
        <time>2010-01-01T00:01:23Z</time>
      </trkpt>
      <trkpt lat="50.15604260" lon="14.39342020">
        <ele>184.22985</ele>
        <time>2010-01-01T00:01:27Z</time>
      </trkpt>
      <trkpt lat="50.15576360" lon="14.39374210">
        <ele>183.26843</ele>
        <time>2010-01-01T00:01:36Z</time>
      </trkpt>
      <trkpt lat="50.15561340" lon="14.39395670">
        <ele>181.34582</ele>
        <time>2010-01-01T00:01:41Z</time>
      </trkpt>
      <trkpt lat="50.15552760" lon="14.39395670">
        <ele>180.38452</ele>
        <time>2010-01-01T00:01:43Z</time>
      </trkpt>
      <trkpt lat="50.15544180" lon="14.39382790">
        <ele>178.46191</ele>
        <time>2010-01-01T00:01:46Z</time>
      </trkpt>
      <trkpt lat="50.15531300" lon="14.39352750">
        <ele>178.46191</ele>
        <time>2010-01-01T00:01:52Z</time>
      </trkpt>
      <trkpt lat="50.15503410" lon="14.39322710">
        <ele>178.46191</ele>
        <time>2010-01-01T00:02:00Z</time>
      </trkpt>
      <trkpt lat="50.15421870" lon="14.39286230">
        <ele>179.90380</ele>
        <time>2010-01-01T00:02:22Z</time>
      </trkpt>
      <trkpt lat="50.15357490" lon="14.39219710">
        <ele>181.82641</ele>
        <time>2010-01-01T00:02:41Z</time>
      </trkpt>
      <trkpt lat="50.15327450" lon="14.39125300">
        <ele>180.86523</ele>
        <time>2010-01-01T00:02:58Z</time>
      </trkpt>
      <trkpt lat="50.15314580" lon="14.38992260">
        <ele>180.38452</ele>
        <time>2010-01-01T00:03:19Z</time>
      </trkpt>
      <trkpt lat="50.15303850" lon="14.38857080">
        <ele>181.82641</ele>
        <time>2010-01-01T00:03:41Z</time>
      </trkpt>
      <trkpt lat="50.15286680" lon="14.38790560">
        <ele>182.78784</ele>
        <time>2010-01-01T00:03:52Z</time>
      </trkpt>
      <trkpt lat="50.15263080" lon="14.38670400">
        <ele>181.82641</ele>
        <time>2010-01-01T00:04:12Z</time>
      </trkpt>
      <trkpt lat="50.15254500" lon="14.38584570">
        <ele>185.67175</ele>
        <time>2010-01-01T00:04:26Z</time>
      </trkpt>
      <trkpt lat="50.15254500" lon="14.38578130">
        <ele>186.63317</ele>
        <time>2010-01-01T00:04:27Z</time>
      </trkpt>
      <trkpt lat="50.15252350" lon="14.38573840">
        <ele>187.11376</ele>
        <time>2010-01-01T00:04:28Z</time>
      </trkpt>
      <trkpt lat="50.15220170" lon="14.38571690">
        <ele>186.63317</ele>
        <time>2010-01-01T00:04:36Z</time>
      </trkpt>
      <trkpt lat="50.15190120" lon="14.38612460">
        <ele>185.19116</ele>
        <time>2010-01-01T00:04:46Z</time>
      </trkpt>
      <trkpt lat="50.15151500" lon="14.38670400">
        <ele>185.19116</ele>
        <time>2010-01-01T00:04:59Z</time>
      </trkpt>
      <trkpt lat="50.15084980" lon="14.38758370">
        <ele>185.19116</ele>
        <time>2010-01-01T00:05:21Z</time>
      </trkpt>
      <trkpt lat="50.15016320" lon="14.38631770">
        <ele>186.63317</ele>
        <time>2010-01-01T00:05:47Z</time>
      </trkpt>
      <trkpt lat="50.14973400" lon="14.38573840">
        <ele>187.11376</ele>
        <time>2010-01-01T00:06:01Z</time>
      </trkpt>
      <trkpt lat="50.14898300" lon="14.38440800">
        <ele>188.55578</ele>
        <time>2010-01-01T00:06:30Z</time>
      </trkpt>
      <trkpt lat="50.14799590" lon="14.38378570">
        <ele>188.07507</ele>
        <time>2010-01-01T00:06:56Z</time>
      </trkpt>
      <trkpt lat="50.14735220" lon="14.38363550">
        <ele>190.95898</ele>
        <time>2010-01-01T00:07:12Z</time>
      </trkpt>
      <trkpt lat="50.14711620" lon="14.38301320">
        <ele>191.43957</ele>
        <time>2010-01-01T00:07:24Z</time>
      </trkpt>
      <trkpt lat="50.14707330" lon="14.38279870">
        <ele>194.32373</ele>
        <time>2010-01-01T00:07:27Z</time>
      </trkpt>
      <trkpt lat="50.14692310" lon="14.38151120">
        <ele>193.36230</ele>
        <time>2010-01-01T00:07:48Z</time>
      </trkpt>
      <trkpt lat="50.14662270" lon="14.38058850">
        <ele>189.51696</ele>
        <time>2010-01-01T00:08:05Z</time>
      </trkpt>
      <trkpt lat="50.14638660" lon="14.37927960">
        <ele>189.99768</ele>
        <time>2010-01-01T00:08:27Z</time>
      </trkpt>
      <trkpt lat="50.14651540" lon="14.37794920">
        <ele>193.36230</ele>
        <time>2010-01-01T00:08:48Z</time>
      </trkpt>
      <trkpt lat="50.14683720" lon="14.37717680">
        <ele>197.68823</ele>
        <time>2010-01-01T00:09:03Z</time>
      </trkpt>
      <trkpt lat="50.14692310" lon="14.37618970">
        <ele>201.05285</ele>
        <time>2010-01-01T00:09:19Z</time>
      </trkpt>
      <trkpt lat="50.14709470" lon="14.37526700">
        <ele>205.85949</ele>
        <time>2010-01-01T00:09:34Z</time>
      </trkpt>
      <trkpt lat="50.14728780" lon="14.37449460">
        <ele>207.30139</ele>
        <time>2010-01-01T00:09:47Z</time>
      </trkpt>
      <trkpt lat="50.14735220" lon="14.37316420">
        <ele>210.66601</ele>
        <time>2010-01-01T00:10:08Z</time>
      </trkpt>
      <trkpt lat="50.14750240" lon="14.37247750">
        <ele>214.51123</ele>
        <time>2010-01-01T00:10:20Z</time>
      </trkpt>
      <trkpt lat="50.14752390" lon="14.37243460">
        <ele>214.99194</ele>
        <time>2010-01-01T00:10:21Z</time>
      </trkpt>
      <trkpt lat="50.14793160" lon="14.37189820">
        <ele>215.95324</ele>
        <time>2010-01-01T00:10:34Z</time>
      </trkpt>
      <trkpt lat="50.14799590" lon="14.37110420">
        <ele>218.35656</ele>
        <time>2010-01-01T00:10:47Z</time>
      </trkpt>
      <trkpt lat="50.14775990" lon="14.36985970">
        <ele>217.87597</ele>
        <time>2010-01-01T00:11:07Z</time>
      </trkpt>
      <trkpt lat="50.14756680" lon="14.36850790">
        <ele>217.87597</ele>
        <time>2010-01-01T00:11:30Z</time>
      </trkpt>
      <trkpt lat="50.14760970" lon="14.36672690">
        <ele>218.35656</ele>
        <time>2010-01-01T00:11:58Z</time>
      </trkpt>
      <trkpt lat="50.14801740" lon="14.36599730">
        <ele>216.91467</ele>
        <time>2010-01-01T00:12:13Z</time>
      </trkpt>
      <trkpt lat="50.14808180" lon="14.36586860">
        <ele>221.72119</ele>
        <time>2010-01-01T00:12:16Z</time>
      </trkpt>
      <trkpt lat="50.14827490" lon="14.36552520">
        <ele>227.96972</ele>
        <time>2010-01-01T00:12:23Z</time>
      </trkpt>
      <trkpt lat="50.14885430" lon="14.36449530">
        <ele>228.93115</ele>
        <time>2010-01-01T00:12:45Z</time>
      </trkpt>
      <trkpt lat="50.14909030" lon="14.36370130">
        <ele>226.04711</ele>
        <time>2010-01-01T00:12:59Z</time>
      </trkpt>
      <trkpt lat="50.14900450" lon="14.36280010">
        <ele>223.16320</ele>
        <time>2010-01-01T00:13:14Z</time>
      </trkpt>
      <trkpt lat="50.14883280" lon="14.36209200">
        <ele>222.20178</ele>
        <time>2010-01-01T00:13:26Z</time>
      </trkpt>
      <trkpt lat="50.14863970" lon="14.36136250">
        <ele>221.72119</ele>
        <time>2010-01-01T00:13:38Z</time>
      </trkpt>
      <trkpt lat="50.14876840" lon="14.36108350">
        <ele>221.72119</ele>
        <time>2010-01-01T00:13:44Z</time>
      </trkpt>
      <trkpt lat="50.14885430" lon="14.36089040">
        <ele>220.75988</ele>
        <time>2010-01-01T00:13:48Z</time>
      </trkpt>
      <trkpt lat="50.14904740" lon="14.36048270">
        <ele>220.27917</ele>
        <time>2010-01-01T00:13:56Z</time>
      </trkpt>
      <trkpt lat="50.14928340" lon="14.35994630">
        <ele>224.12451</ele>
        <time>2010-01-01T00:14:06Z</time>
      </trkpt>
      <trkpt lat="50.14960530" lon="14.35925960">
        <ele>228.45043</ele>
        <time>2010-01-01T00:14:20Z</time>
      </trkpt>
      <trkpt lat="50.14977690" lon="14.35842280">
        <ele>227.48913</ele>
        <time>2010-01-01T00:14:34Z</time>
      </trkpt>
      <trkpt lat="50.14990570" lon="14.35750010">
        <ele>225.56652</ele>
        <time>2010-01-01T00:14:49Z</time>
      </trkpt>
      <trkpt lat="50.15001300" lon="14.35672760">
        <ele>225.56652</ele>
        <time>2010-01-01T00:15:01Z</time>
      </trkpt>
      <trkpt lat="50.15035630" lon="14.35604100">
        <ele>229.41174</ele>
        <time>2010-01-01T00:15:15Z</time>
      </trkpt>
      <trkpt lat="50.15033480" lon="14.35586930">
        <ele>232.77648</ele>
        <time>2010-01-01T00:15:18Z</time>
      </trkpt>
      <trkpt lat="50.15020610" lon="14.35507540">
        <ele>230.85375</ele>
        <time>2010-01-01T00:15:31Z</time>
      </trkpt>
      <trkpt lat="50.15005590" lon="14.35421710">
        <ele>229.41174</ele>
        <time>2010-01-01T00:15:45Z</time>
      </trkpt>
      <trkpt lat="50.15003440" lon="14.35406680">
        <ele>229.89233</ele>
        <time>2010-01-01T00:15:48Z</time>
      </trkpt>
      <trkpt lat="50.15001300" lon="14.35398100">
        <ele>228.45043</ele>
        <time>2010-01-01T00:15:49Z</time>
      </trkpt>
      <trkpt lat="50.14975550" lon="14.35292960">
        <ele>229.41174</ele>
        <time>2010-01-01T00:16:07Z</time>
      </trkpt>
      <trkpt lat="50.14973400" lon="14.35280080">
        <ele>229.89233</ele>
        <time>2010-01-01T00:16:09Z</time>
      </trkpt>
      <trkpt lat="50.14973400" lon="14.35258630">
        <ele>229.89233</ele>
        <time>2010-01-01T00:16:13Z</time>
      </trkpt>
      <trkpt lat="50.14979840" lon="14.35101990">
        <ele>230.37304</ele>
        <time>2010-01-01T00:16:38Z</time>
      </trkpt>
      <trkpt lat="50.15020610" lon="14.34887410">
        <ele>229.41174</ele>
        <time>2010-01-01T00:17:13Z</time>
      </trkpt>
      <trkpt lat="50.15031340" lon="14.34827330">
        <ele>230.85375</ele>
        <time>2010-01-01T00:17:23Z</time>
      </trkpt>
      <trkpt lat="50.15052800" lon="14.34556960">
        <ele>232.29577</ele>
        <time>2010-01-01T00:18:07Z</time>
      </trkpt>
      <trkpt lat="50.15039920" lon="14.34361700">
        <ele>230.85375</ele>
        <time>2010-01-01T00:18:38Z</time>
      </trkpt>
      <trkpt lat="50.15027050" lon="14.34250120">
        <ele>232.29577</ele>
        <time>2010-01-01T00:18:56Z</time>
      </trkpt>
      <trkpt lat="50.15003440" lon="14.34132100">
        <ele>230.85375</ele>
        <time>2010-01-01T00:19:16Z</time>
      </trkpt>
      <trkpt lat="50.14973400" lon="14.34041980">
        <ele>236.14099</ele>
        <time>2010-01-01T00:19:32Z</time>
      </trkpt>
      <trkpt lat="50.14943360" lon="14.33945420">
        <ele>237.10229</ele>
        <time>2010-01-01T00:19:49Z</time>
      </trkpt>
      <trkpt lat="50.14913320" lon="14.33853150">
        <ele>237.58288</ele>
        <time>2010-01-01T00:20:05Z</time>
      </trkpt>
      <trkpt lat="50.14894010" lon="14.33790920">
        <ele>238.06359</ele>
        <time>2010-01-01T00:20:17Z</time>
      </trkpt>
      <trkpt lat="50.14866110" lon="14.33707240">
        <ele>237.58288</ele>
        <time>2010-01-01T00:20:32Z</time>
      </trkpt>
      <trkpt lat="50.14859680" lon="14.33608530">
        <ele>238.54431</ele>
        <time>2010-01-01T00:20:47Z</time>
      </trkpt>
      <trkpt lat="50.14855380" lon="14.33542010">
        <ele>239.02490</ele>
        <time>2010-01-01T00:20:58Z</time>
      </trkpt>
      <trkpt lat="50.14851090" lon="14.33471200">
        <ele>239.50549</ele>
        <time>2010-01-01T00:21:09Z</time>
      </trkpt>
      <trkpt lat="50.14848950" lon="14.33415410">
        <ele>240.46704</ele>
        <time>2010-01-01T00:21:18Z</time>
      </trkpt>
      <trkpt lat="50.14846800" lon="14.33368210">
        <ele>239.98620</ele>
        <time>2010-01-01T00:21:26Z</time>
      </trkpt>
      <trkpt lat="50.14842510" lon="14.33293100">
        <ele>240.94763</ele>
        <time>2010-01-01T00:21:38Z</time>
      </trkpt>
      <trkpt lat="50.14848950" lon="14.33222290">
        <ele>247.19604</ele>
        <time>2010-01-01T00:21:49Z</time>
      </trkpt>
      <trkpt lat="50.14853240" lon="14.33140750">
        <ele>252.48339</ele>
        <time>2010-01-01T00:22:02Z</time>
      </trkpt>
      <trkpt lat="50.14855380" lon="14.33059220">
        <ele>255.84802</ele>
        <time>2010-01-01T00:22:15Z</time>
      </trkpt>
      <trkpt lat="50.14857530" lon="14.33027030">
        <ele>256.32873</ele>
        <time>2010-01-01T00:22:20Z</time>
      </trkpt>
      <trkpt lat="50.14857530" lon="14.33018450">
        <ele>256.80932</ele>
        <time>2010-01-01T00:22:22Z</time>
      </trkpt>
      <trkpt lat="50.14782430" lon="14.32885410">
        <ele>256.32873</ele>
        <time>2010-01-01T00:22:50Z</time>
      </trkpt>
      <trkpt lat="50.14775990" lon="14.32853220">
        <ele>256.32873</ele>
        <time>2010-01-01T00:22:55Z</time>
      </trkpt>
      <trkpt lat="50.14773850" lon="14.32825330">
        <ele>255.36730</ele>
        <time>2010-01-01T00:23:00Z</time>
      </trkpt>
      <trkpt lat="50.14771700" lon="14.32797430">
        <ele>255.36730</ele>
        <time>2010-01-01T00:23:04Z</time>
      </trkpt>
      <trkpt lat="50.14771700" lon="14.32778120">
        <ele>255.36730</ele>
        <time>2010-01-01T00:23:07Z</time>
      </trkpt>
      <trkpt lat="50.14767410" lon="14.32737350">
        <ele>255.36730</ele>
        <time>2010-01-01T00:23:14Z</time>
      </trkpt>
      <trkpt lat="50.14765260" lon="14.32709460">
        <ele>255.36730</ele>
        <time>2010-01-01T00:23:19Z</time>
      </trkpt>
      <trkpt lat="50.14765260" lon="14.32694440">
        <ele>254.88659</ele>
        <time>2010-01-01T00:23:21Z</time>
      </trkpt>
      <trkpt lat="50.14752390" lon="14.32640790">
        <ele>252.48339</ele>
        <time>2010-01-01T00:23:30Z</time>
      </trkpt>
      <trkpt lat="50.14733080" lon="14.32619330">
        <ele>251.04138</ele>
        <time>2010-01-01T00:23:36Z</time>
      </trkpt>
      <trkpt lat="50.14711620" lon="14.32593580">
        <ele>250.08020</ele>
        <time>2010-01-01T00:23:43Z</time>
      </trkpt>
      <trkpt lat="50.14640810" lon="14.32509900">
        <ele>248.15759</ele>
        <time>2010-01-01T00:24:05Z</time>
      </trkpt>
      <trkpt lat="50.14570000" lon="14.32426210">
        <ele>249.11877</ele>
        <time>2010-01-01T00:24:27Z</time>
      </trkpt>
      <trkpt lat="50.14559270" lon="14.32409050">
        <ele>249.11877</ele>
        <time>2010-01-01T00:24:31Z</time>
      </trkpt>
      <trkpt lat="50.14501330" lon="14.32312490">
        <ele>247.19604</ele>
        <time>2010-01-01T00:24:52Z</time>
      </trkpt>
      <trkpt lat="50.14402630" lon="14.32153700">
        <ele>247.67675</ele>
        <time>2010-01-01T00:25:27Z</time>
      </trkpt>
      <trkpt lat="50.14381170" lon="14.32119370">
        <ele>249.11877</ele>
        <time>2010-01-01T00:25:35Z</time>
      </trkpt>
      <trkpt lat="50.14374730" lon="14.32074310">
        <ele>249.59948</ele>
        <time>2010-01-01T00:25:42Z</time>
      </trkpt>
      <trkpt lat="50.14383320" lon="14.32003500">
        <ele>252.48339</ele>
        <time>2010-01-01T00:25:54Z</time>
      </trkpt>
      <trkpt lat="50.14385460" lon="14.31984190">
        <ele>252.96398</ele>
        <time>2010-01-01T00:25:57Z</time>
      </trkpt>
      <trkpt lat="50.14396190" lon="14.31906940">
        <ele>255.84802</ele>
        <time>2010-01-01T00:26:09Z</time>
      </trkpt>
      <trkpt lat="50.14398340" lon="14.31874750">
        <ele>256.32873</ele>
        <time>2010-01-01T00:26:14Z</time>
      </trkpt>
      <trkpt lat="50.14366150" lon="14.31816820">
        <ele>259.21264</ele>
        <time>2010-01-01T00:26:27Z</time>
      </trkpt>
      <trkpt lat="50.14368300" lon="14.31761030">
        <ele>267.86450</ele>
        <time>2010-01-01T00:26:36Z</time>
      </trkpt>
      <trkpt lat="50.14376880" lon="14.31707380">
        <ele>273.63244</ele>
        <time>2010-01-01T00:26:44Z</time>
      </trkpt>
      <trkpt lat="50.14383320" lon="14.31655880">
        <ele>277.95825</ele>
        <time>2010-01-01T00:26:53Z</time>
      </trkpt>
      <trkpt lat="50.14383320" lon="14.31593660">
        <ele>279.40026</ele>
        <time>2010-01-01T00:27:03Z</time>
      </trkpt>
      <trkpt lat="50.14383320" lon="14.31503530">
        <ele>281.32299</ele>
        <time>2010-01-01T00:27:17Z</time>
      </trkpt>
      <trkpt lat="50.14383320" lon="14.31422000">
        <ele>283.24560</ele>
        <time>2010-01-01T00:27:30Z</time>
      </trkpt>
      <trkpt lat="50.14398340" lon="14.31368350">
        <ele>287.57141</ele>
        <time>2010-01-01T00:27:39Z</time>
      </trkpt>
      <trkpt lat="50.14417650" lon="14.31306120">
        <ele>292.37817</ele>
        <time>2010-01-01T00:27:50Z</time>
      </trkpt>
      <trkpt lat="50.14451980" lon="14.31196690">
        <ele>297.18469</ele>
        <time>2010-01-01T00:28:10Z</time>
      </trkpt>
      <trkpt lat="50.14471290" lon="14.31132320">
        <ele>297.66540</ele>
        <time>2010-01-01T00:28:21Z</time>
      </trkpt>
      <trkpt lat="50.14503480" lon="14.31027170">
        <ele>301.51062</ele>
        <time>2010-01-01T00:28:40Z</time>
      </trkpt>
      <trkpt lat="50.14537810" lon="14.30919890">
        <ele>302.47192</ele>
        <time>2010-01-01T00:28:59Z</time>
      </trkpt>
      <trkpt lat="50.14570000" lon="14.30812600">
        <ele>304.87524</ele>
        <time>2010-01-01T00:29:18Z</time>
      </trkpt>
      <trkpt lat="50.14595750" lon="14.30728910">
        <ele>307.27856</ele>
        <time>2010-01-01T00:29:33Z</time>
      </trkpt>
      <trkpt lat="50.14597890" lon="14.30726770">
        <ele>307.75927</ele>
        <time>2010-01-01T00:29:33Z</time>
      </trkpt>
      <trkpt lat="50.14610770" lon="14.30722480">
        <ele>308.23986</ele>
        <time>2010-01-01T00:29:37Z</time>
      </trkpt>
      <trkpt lat="50.14617200" lon="14.30722480">
        <ele>310.16247</ele>
        <time>2010-01-01T00:29:38Z</time>
      </trkpt>
      <trkpt lat="50.14651540" lon="14.30716040">
        <ele>309.68188</ele>
        <time>2010-01-01T00:29:47Z</time>
      </trkpt>
      <trkpt lat="50.14715910" lon="14.30705310">
        <ele>308.23986</ele>
        <time>2010-01-01T00:30:03Z</time>
      </trkpt>
      <trkpt lat="50.14780280" lon="14.30696730">
        <ele>307.75927</ele>
        <time>2010-01-01T00:30:19Z</time>
      </trkpt>
      <trkpt lat="50.14842510" lon="14.30686000">
        <ele>306.31726</ele>
        <time>2010-01-01T00:30:34Z</time>
      </trkpt>
      <trkpt lat="50.14911170" lon="14.30675270">
        <ele>306.31726</ele>
        <time>2010-01-01T00:30:52Z</time>
      </trkpt>
      <trkpt lat="50.14977690" lon="14.30664540">
        <ele>305.35595</ele>
        <time>2010-01-01T00:31:08Z</time>
      </trkpt>
      <trkpt lat="50.15037780" lon="14.30655960">
        <ele>306.31726</ele>
        <time>2010-01-01T00:31:23Z</time>
      </trkpt>
      <trkpt lat="50.15117170" lon="14.30643080">
        <ele>304.87524</ele>
        <time>2010-01-01T00:31:43Z</time>
      </trkpt>
      <trkpt lat="50.15207290" lon="14.30628060">
        <ele>305.83666</ele>
        <time>2010-01-01T00:32:06Z</time>
      </trkpt>
      <trkpt lat="50.15278100" lon="14.30617330">
        <ele>306.31726</ele>
        <time>2010-01-01T00:32:23Z</time>
      </trkpt>
      <trkpt lat="50.15344620" lon="14.30606600">
        <ele>306.79785</ele>
        <time>2010-01-01T00:32:40Z</time>
      </trkpt>
      <trkpt lat="50.15413280" lon="14.30595870">
        <ele>307.27856</ele>
        <time>2010-01-01T00:32:57Z</time>
      </trkpt>
      <trkpt lat="50.15462640" lon="14.30589440">
        <ele>308.23986</ele>
        <time>2010-01-01T00:33:10Z</time>
      </trkpt>
      <trkpt lat="50.15503410" lon="14.30583000">
        <ele>309.68188</ele>
        <time>2010-01-01T00:33:20Z</time>
      </trkpt>
      <trkpt lat="50.15550610" lon="14.30572270">
        <ele>310.16247</ele>
        <time>2010-01-01T00:33:32Z</time>
      </trkpt>
      <trkpt lat="50.15574220" lon="14.30533650">
        <ele>307.75927</ele>
        <time>2010-01-01T00:33:40Z</time>
      </trkpt>
      <trkpt lat="50.15593530" lon="14.30499320">
        <ele>305.83666</ele>
        <time>2010-01-01T00:33:47Z</time>
      </trkpt>
      <trkpt lat="50.15647170" lon="14.30404900">
        <ele>300.54931</ele>
        <time>2010-01-01T00:34:07Z</time>
      </trkpt>
      <trkpt lat="50.15666480" lon="14.30370570">
        <ele>300.06872</ele>
        <time>2010-01-01T00:34:15Z</time>
      </trkpt>
      <trkpt lat="50.15681510" lon="14.30346970">
        <ele>299.58801</ele>
        <time>2010-01-01T00:34:20Z</time>
      </trkpt>
      <trkpt lat="50.15690090" lon="14.30331950">
        <ele>299.10729</ele>
        <time>2010-01-01T00:34:23Z</time>
      </trkpt>
      <trkpt lat="50.15737300" lon="14.30248260">
        <ele>297.18469</ele>
        <time>2010-01-01T00:34:41Z</time>
      </trkpt>
      <trkpt lat="50.15810250" lon="14.30164580">
        <ele>293.33935</ele>
        <time>2010-01-01T00:35:04Z</time>
      </trkpt>
      <trkpt lat="50.15831710" lon="14.30181740">
        <ele>292.85876</ele>
        <time>2010-01-01T00:35:10Z</time>
      </trkpt>
      <trkpt lat="50.15904660" lon="14.30241820">
        <ele>292.85876</ele>
        <time>2010-01-01T00:35:30Z</time>
      </trkpt>
      <trkpt lat="50.15934710" lon="14.30301900">
        <ele>291.41674</ele>
        <time>2010-01-01T00:35:42Z</time>
      </trkpt>
      <trkpt lat="50.15945430" lon="14.30316930">
        <ele>290.93615</ele>
        <time>2010-01-01T00:35:46Z</time>
      </trkpt>
      <trkpt lat="50.15977620" lon="14.30250410">
        <ele>290.93615</ele>
        <time>2010-01-01T00:35:59Z</time>
      </trkpt>
      <trkpt lat="50.15975480" lon="14.30181740">
        <ele>291.89746</ele>
        <time>2010-01-01T00:36:10Z</time>
      </trkpt>
      <trkpt lat="50.15966890" lon="14.30085180">
        <ele>295.26196</ele>
        <time>2010-01-01T00:36:26Z</time>
      </trkpt>
      <trkpt lat="50.15973330" lon="14.29995060">
        <ele>297.18469</ele>
        <time>2010-01-01T00:36:40Z</time>
      </trkpt>
      <trkpt lat="50.16005520" lon="14.29898500">
        <ele>298.14611</ele>
        <time>2010-01-01T00:36:57Z</time>
      </trkpt>
      <trkpt lat="50.16039850" lon="14.29795500">
        <ele>299.58801</ele>
        <time>2010-01-01T00:37:16Z</time>
      </trkpt>
      <trkpt lat="50.16095640" lon="14.29623840">
        <ele>299.58801</ele>
        <time>2010-01-01T00:37:47Z</time>
      </trkpt>
      <trkpt lat="50.16140700" lon="14.29490800">
        <ele>300.06872</ele>
        <time>2010-01-01T00:38:11Z</time>
      </trkpt>
      <trkpt lat="50.16177180" lon="14.29362060">
        <ele>303.43322</ele>
        <time>2010-01-01T00:38:33Z</time>
      </trkpt>
      <trkpt lat="50.16200780" lon="14.29222580">
        <ele>305.83666</ele>
        <time>2010-01-01T00:38:56Z</time>
      </trkpt>
      <trkpt lat="50.16224380" lon="14.29074530">
        <ele>307.27856</ele>
        <time>2010-01-01T00:39:20Z</time>
      </trkpt>
      <trkpt lat="50.16232970" lon="14.29031610">
        <ele>307.75927</ele>
        <time>2010-01-01T00:39:27Z</time>
      </trkpt>
      <trkpt lat="50.16239400" lon="14.28995130">
        <ele>308.23986</ele>
        <time>2010-01-01T00:39:34Z</time>
      </trkpt>
      <trkpt lat="50.16256570" lon="14.28887840">
        <ele>306.79785</ele>
        <time>2010-01-01T00:39:51Z</time>
      </trkpt>
      <trkpt lat="50.16290900" lon="14.28761240">
        <ele>305.83666</ele>
        <time>2010-01-01T00:40:13Z</time>
      </trkpt>
      <trkpt lat="50.16338110" lon="14.28653960">
        <ele>306.31726</ele>
        <time>2010-01-01T00:40:34Z</time>
      </trkpt>
      <trkpt lat="50.16402480" lon="14.28512330">
        <ele>304.39465</ele>
        <time>2010-01-01T00:41:01Z</time>
      </trkpt>
      <trkpt lat="50.16430380" lon="14.28355690">
        <ele>300.54931</ele>
        <time>2010-01-01T00:41:27Z</time>
      </trkpt>
      <trkpt lat="50.16453980" lon="14.28252700">
        <ele>297.18469</ele>
        <time>2010-01-01T00:41:45Z</time>
      </trkpt>
      <trkpt lat="50.16464710" lon="14.28226950">
        <ele>296.70410</ele>
        <time>2010-01-01T00:41:50Z</time>
      </trkpt>
      <trkpt lat="50.16488310" lon="14.28177600">
        <ele>296.22351</ele>
        <time>2010-01-01T00:42:00Z</time>
      </trkpt>
      <trkpt lat="50.16499040" lon="14.28153990">
        <ele>295.74267</ele>
        <time>2010-01-01T00:42:04Z</time>
      </trkpt>
      <trkpt lat="50.16526940" lon="14.28091760">
        <ele>296.22351</ele>
        <time>2010-01-01T00:42:16Z</time>
      </trkpt>
      <trkpt lat="50.16546250" lon="14.28050990">
        <ele>295.74267</ele>
        <time>2010-01-01T00:42:24Z</time>
      </trkpt>
      <trkpt lat="50.16535520" lon="14.28012370">
        <ele>295.74267</ele>
        <time>2010-01-01T00:42:31Z</time>
      </trkpt>
      <trkpt lat="50.16514060" lon="14.27924390">
        <ele>296.70410</ele>
        <time>2010-01-01T00:42:46Z</time>
      </trkpt>
      <trkpt lat="50.16473290" lon="14.27857880">
        <ele>299.10729</ele>
        <time>2010-01-01T00:43:01Z</time>
      </trkpt>
      <trkpt lat="50.16443250" lon="14.27810670">
        <ele>300.54931</ele>
        <time>2010-01-01T00:43:11Z</time>
      </trkpt>
      <trkpt lat="50.16453980" lon="14.27675490">
        <ele>300.06872</ele>
        <time>2010-01-01T00:43:33Z</time>
      </trkpt>
      <trkpt lat="50.16453980" lon="14.27574630">
        <ele>299.58801</ele>
        <time>2010-01-01T00:43:49Z</time>
      </trkpt>
      <trkpt lat="50.16426090" lon="14.27430870">
        <ele>301.99133</ele>
        <time>2010-01-01T00:44:13Z</time>
      </trkpt>
      <trkpt lat="50.16393900" lon="14.27263500">
        <ele>302.95251</ele>
        <time>2010-01-01T00:44:41Z</time>
      </trkpt>
      <trkpt lat="50.16368150" lon="14.27134750">
        <ele>303.43322</ele>
        <time>2010-01-01T00:45:02Z</time>
      </trkpt>
      <trkpt lat="50.16338110" lon="14.26973820">
        <ele>302.95251</ele>
        <time>2010-01-01T00:45:29Z</time>
      </trkpt>
      <trkpt lat="50.16320940" lon="14.26868680">
        <ele>300.54931</ele>
        <time>2010-01-01T00:45:46Z</time>
      </trkpt>
      <trkpt lat="50.16308070" lon="14.26722760">
        <ele>298.62670</ele>
        <time>2010-01-01T00:46:10Z</time>
      </trkpt>
      <trkpt lat="50.16288760" lon="14.26677700">
        <ele>297.66540</ele>
        <time>2010-01-01T00:46:19Z</time>
      </trkpt>
      <trkpt lat="50.16250130" lon="14.26639080">
        <ele>294.78137</ele>
        <time>2010-01-01T00:46:30Z</time>
      </trkpt>
      <trkpt lat="50.16228680" lon="14.26617620">
        <ele>293.82006</ele>
        <time>2010-01-01T00:46:36Z</time>
      </trkpt>
      <trkpt lat="50.16202930" lon="14.26591870">
        <ele>293.33935</ele>
        <time>2010-01-01T00:46:44Z</time>
      </trkpt>
      <trkpt lat="50.16172890" lon="14.26548960">
        <ele>290.45556</ele>
        <time>2010-01-01T00:46:54Z</time>
      </trkpt>
      <trkpt lat="50.16194340" lon="14.26512480">
        <ele>289.49414</ele>
        <time>2010-01-01T00:47:02Z</time>
      </trkpt>
      <trkpt lat="50.16207220" lon="14.26493170">
        <ele>289.01354</ele>
        <time>2010-01-01T00:47:06Z</time>
      </trkpt>
      <trkpt lat="50.16230820" lon="14.26418070">
        <ele>288.53295</ele>
        <time>2010-01-01T00:47:20Z</time>
      </trkpt>
      <trkpt lat="50.16263010" lon="14.26259280">
        <ele>288.05224</ele>
        <time>2010-01-01T00:47:46Z</time>
      </trkpt>
      <trkpt lat="50.16267300" lon="14.26233530">
        <ele>287.09082</ele>
        <time>2010-01-01T00:47:50Z</time>
      </trkpt>
      <trkpt lat="50.16271590" lon="14.26214220">
        <ele>285.16821</ele>
        <time>2010-01-01T00:47:54Z</time>
      </trkpt>
      <trkpt lat="50.16288760" lon="14.26145550">
        <ele>280.84240</ele>
        <time>2010-01-01T00:48:05Z</time>
      </trkpt>
      <trkpt lat="50.16288760" lon="14.26076890">
        <ele>278.91967</ele>
        <time>2010-01-01T00:48:16Z</time>
      </trkpt>
      <trkpt lat="50.16256570" lon="14.26008220">
        <ele>275.07446</ele>
        <time>2010-01-01T00:48:30Z</time>
      </trkpt>
      <trkpt lat="50.16239400" lon="14.25969600">
        <ele>274.11303</ele>
        <time>2010-01-01T00:48:37Z</time>
      </trkpt>
      <trkpt lat="50.16192200" lon="14.25838710">
        <ele>267.86450</ele>
        <time>2010-01-01T00:49:01Z</time>
      </trkpt>
      <trkpt lat="50.16194340" lon="14.25827980">
        <ele>267.38391</ele>
        <time>2010-01-01T00:49:03Z</time>
      </trkpt>
      <trkpt lat="50.16211510" lon="14.25785060">
        <ele>266.42248</ele>
        <time>2010-01-01T00:49:11Z</time>
      </trkpt>
      <trkpt lat="50.16217950" lon="14.25765750">
        <ele>264.98059</ele>
        <time>2010-01-01T00:49:15Z</time>
      </trkpt>
      <trkpt lat="50.16220090" lon="14.25759320">
        <ele>264.49987</ele>
        <time>2010-01-01T00:49:16Z</time>
      </trkpt>
      <trkpt lat="50.16224380" lon="14.25748590">
        <ele>264.01928</ele>
        <time>2010-01-01T00:49:18Z</time>
      </trkpt>
      <trkpt lat="50.16228680" lon="14.25735710">
        <ele>264.98059</ele>
        <time>2010-01-01T00:49:20Z</time>
      </trkpt>
      <trkpt lat="50.16230820" lon="14.25727130">
        <ele>267.38391</ele>
        <time>2010-01-01T00:49:22Z</time>
      </trkpt>
      <trkpt lat="50.16254430" lon="14.25776480">
        <ele>266.90319</ele>
        <time>2010-01-01T00:49:31Z</time>
      </trkpt>
      <trkpt lat="50.16316650" lon="14.25652030">
        <ele>264.98059</ele>
        <time>2010-01-01T00:49:57Z</time>
      </trkpt>
      <trkpt lat="50.16443250" lon="14.25699230">
        <ele>264.01928</ele>
        <time>2010-01-01T00:50:29Z</time>
      </trkpt>
      <trkpt lat="50.16415360" lon="14.25609110">
        <ele>262.57714</ele>
        <time>2010-01-01T00:50:45Z</time>
      </trkpt>
      <trkpt lat="50.16391750" lon="14.25549030">
        <ele>263.05786</ele>
        <time>2010-01-01T00:50:56Z</time>
      </trkpt>
      <trkpt lat="50.16383170" lon="14.25510410">
        <ele>263.05786</ele>
        <time>2010-01-01T00:51:03Z</time>
      </trkpt>
      <trkpt lat="50.16391750" lon="14.25491090">
        <ele>264.01928</ele>
        <time>2010-01-01T00:51:06Z</time>
      </trkpt>
      <trkpt lat="50.16402480" lon="14.25486800">
        <ele>267.38391</ele>
        <time>2010-01-01T00:51:09Z</time>
      </trkpt>
      <trkpt lat="50.16400340" lon="14.25486800">
        <ele>267.38391</ele>
        <time>2010-01-01T00:51:10Z</time>
      </trkpt>
      <trkpt lat="50.16393900" lon="14.25484660">
        <ele>267.38391</ele>
        <time>2010-01-01T00:51:11Z</time>
      </trkpt>
      <trkpt lat="50.16385320" lon="14.25491090">
        <ele>266.90319</ele>
        <time>2010-01-01T00:51:14Z</time>
      </trkpt>
      <trkpt lat="50.16366000" lon="14.25480370">
        <ele>266.90319</ele>
        <time>2010-01-01T00:51:19Z</time>
      </trkpt>
      <trkpt lat="50.16363860" lon="14.25480370">
        <ele>268.34509</ele>
        <time>2010-01-01T00:51:19Z</time>
      </trkpt>
      <trkpt lat="50.16363860" lon="14.25482510">
        <ele>269.30651</ele>
        <time>2010-01-01T00:51:20Z</time>
      </trkpt>
      <trkpt lat="50.16361710" lon="14.25480370">
        <ele>269.30651</ele>
        <time>2010-01-01T00:51:20Z</time>
      </trkpt>
      <trkpt lat="50.16366000" lon="14.25486800">
        <ele>268.82580</ele>
        <time>2010-01-01T00:51:22Z</time>
      </trkpt>
      <trkpt lat="50.16374590" lon="14.25488950">
        <ele>267.86450</ele>
        <time>2010-01-01T00:51:24Z</time>
      </trkpt>
      <trkpt lat="50.16376730" lon="14.25506110">
        <ele>263.53857</ele>
        <time>2010-01-01T00:51:27Z</time>
      </trkpt>
      <trkpt lat="50.16376730" lon="14.25508260">
        <ele>268.82580</ele>
        <time>2010-01-01T00:51:27Z</time>
      </trkpt>
      <trkpt lat="50.16376730" lon="14.25510410">
        <ele>269.78710</ele>
        <time>2010-01-01T00:51:27Z</time>
      </trkpt>
      <trkpt lat="50.16376730" lon="14.25508260">
        <ele>268.82580</ele>
        <time>2010-01-01T00:51:28Z</time>
      </trkpt>
      <trkpt lat="50.16372440" lon="14.25518990">
        <ele>286.12951</ele>
        <time>2010-01-01T00:51:30Z</time>
      </trkpt>
      <trkpt lat="50.16372440" lon="14.25510410">
        <ele>270.26770</ele>
        <time>2010-01-01T00:51:31Z</time>
      </trkpt>
      <trkpt lat="50.16374590" lon="14.25512550">
        <ele>267.38391</ele>
        <time>2010-01-01T00:51:32Z</time>
      </trkpt>
      <trkpt lat="50.16385320" lon="14.25561900">
        <ele>265.94189</ele>
        <time>2010-01-01T00:51:40Z</time>
      </trkpt>
      <trkpt lat="50.16402480" lon="14.25604820">
        <ele>264.49987</ele>
        <time>2010-01-01T00:51:48Z</time>
      </trkpt>
      <trkpt lat="50.16411070" lon="14.25624130">
        <ele>263.53857</ele>
        <time>2010-01-01T00:51:52Z</time>
      </trkpt>
      <trkpt lat="50.16404630" lon="14.25628420">
        <ele>262.57714</ele>
        <time>2010-01-01T00:51:54Z</time>
      </trkpt>
      <trkpt lat="50.16396050" lon="14.25639150">
        <ele>262.57714</ele>
        <time>2010-01-01T00:51:56Z</time>
      </trkpt>
      <trkpt lat="50.16393900" lon="14.25652030">
        <ele>262.09655</ele>
        <time>2010-01-01T00:51:59Z</time>
      </trkpt>
      <trkpt lat="50.16404630" lon="14.25667050">
        <ele>264.01928</ele>
        <time>2010-01-01T00:52:02Z</time>
      </trkpt>
      <trkpt lat="50.16434670" lon="14.25639150">
        <ele>264.98059</ele>
        <time>2010-01-01T00:52:11Z</time>
      </trkpt>
      <trkpt lat="50.16443250" lon="14.25632720">
        <ele>264.49987</ele>
        <time>2010-01-01T00:52:13Z</time>
      </trkpt>
      <trkpt lat="50.16438960" lon="14.25632720">
        <ele>267.86450</ele>
        <time>2010-01-01T00:52:14Z</time>
      </trkpt>
      <trkpt lat="50.16481880" lon="14.25654170">
        <ele>267.38391</ele>
        <time>2010-01-01T00:52:25Z</time>
      </trkpt>
      <trkpt lat="50.16541960" lon="14.25742150">
        <ele>264.98059</ele>
        <time>2010-01-01T00:52:46Z</time>
      </trkpt>
      <trkpt lat="50.16644950" lon="14.25740000">
        <ele>261.13525</ele>
        <time>2010-01-01T00:53:12Z</time>
      </trkpt>
      <trkpt lat="50.16711470" lon="14.25752880">
        <ele>259.69335</ele>
        <time>2010-01-01T00:53:28Z</time>
      </trkpt>
      <trkpt lat="50.16724350" lon="14.25761460">
        <ele>259.69335</ele>
        <time>2010-01-01T00:53:32Z</time>
      </trkpt>
      <trkpt lat="50.16754390" lon="14.25744300">
        <ele>258.73193</ele>
        <time>2010-01-01T00:53:40Z</time>
      </trkpt>
      <trkpt lat="50.16790870" lon="14.25785060">
        <ele>257.29003</ele>
        <time>2010-01-01T00:53:51Z</time>
      </trkpt>
      <trkpt lat="50.16793010" lon="14.25821540">
        <ele>255.36730</ele>
        <time>2010-01-01T00:53:57Z</time>
      </trkpt>
      <trkpt lat="50.16756530" lon="14.25877330">
        <ele>254.88659</ele>
        <time>2010-01-01T00:54:09Z</time>
      </trkpt>
      <trkpt lat="50.16808030" lon="14.25864460">
        <ele>254.40600</ele>
        <time>2010-01-01T00:54:22Z</time>
      </trkpt>
      <trkpt lat="50.16812320" lon="14.25877330">
        <ele>254.40600</ele>
        <time>2010-01-01T00:54:25Z</time>
      </trkpt>
      <trkpt lat="50.16820910" lon="14.25907370">
        <ele>254.40600</ele>
        <time>2010-01-01T00:54:30Z</time>
      </trkpt>
      <trkpt lat="50.16827340" lon="14.26083330">
        <ele>254.40600</ele>
        <time>2010-01-01T00:54:58Z</time>
      </trkpt>
      <trkpt lat="50.16823050" lon="14.26145550">
        <ele>252.48339</ele>
        <time>2010-01-01T00:55:08Z</time>
      </trkpt>
      <trkpt lat="50.16820910" lon="14.26173450">
        <ele>251.04138</ele>
        <time>2010-01-01T00:55:13Z</time>
      </trkpt>
      <trkpt lat="50.16808030" lon="14.26342960">
        <ele>249.11877</ele>
        <time>2010-01-01T00:55:40Z</time>
      </trkpt>
      <trkpt lat="50.16808030" lon="14.26420210">
        <ele>250.08020</ele>
        <time>2010-01-01T00:55:52Z</time>
      </trkpt>
      <trkpt lat="50.16812320" lon="14.26433090">
        <ele>249.59948</ele>
        <time>2010-01-01T00:55:54Z</time>
      </trkpt>
      <trkpt lat="50.16827340" lon="14.26484580">
        <ele>251.52209</ele>
        <time>2010-01-01T00:56:03Z</time>
      </trkpt>
      <trkpt lat="50.16868110" lon="14.26624060">
        <ele>246.23486</ele>
        <time>2010-01-01T00:56:28Z</time>
      </trkpt>
      <trkpt lat="50.16870260" lon="14.26630500">
        <ele>246.23486</ele>
        <time>2010-01-01T00:56:29Z</time>
      </trkpt>
      <trkpt lat="50.16887430" lon="14.26684140">
        <ele>244.31225</ele>
        <time>2010-01-01T00:56:38Z</time>
      </trkpt>
      <trkpt lat="50.16896010" lon="14.26703450">
        <ele>243.83154</ele>
        <time>2010-01-01T00:56:42Z</time>
      </trkpt>
      <trkpt lat="50.16926050" lon="14.26746370">
        <ele>242.87023</ele>
        <time>2010-01-01T00:56:52Z</time>
      </trkpt>
      <trkpt lat="50.16949650" lon="14.26780700">
        <ele>241.90893</ele>
        <time>2010-01-01T00:57:00Z</time>
      </trkpt>
      <trkpt lat="50.17003300" lon="14.26815030">
        <ele>240.46704</ele>
        <time>2010-01-01T00:57:15Z</time>
      </trkpt>
      <trkpt lat="50.17037630" lon="14.26752810">
        <ele>251.04138</ele>
        <time>2010-01-01T00:57:28Z</time>
      </trkpt>
      <trkpt lat="50.17078400" lon="14.26718470">
        <ele>248.15759</ele>
        <time>2010-01-01T00:57:39Z</time>
      </trkpt>
      <trkpt lat="50.17125610" lon="14.26750660">
        <ele>248.15759</ele>
        <time>2010-01-01T00:57:52Z</time>
      </trkpt>
      <trkpt lat="50.17144920" lon="14.26731350">
        <ele>247.19604</ele>
        <time>2010-01-01T00:57:58Z</time>
      </trkpt>
      <trkpt lat="50.17166380" lon="14.26697020">
        <ele>246.23486</ele>
        <time>2010-01-01T00:58:06Z</time>
      </trkpt>
      <trkpt lat="50.17177100" lon="14.26677700">
        <ele>246.23486</ele>
        <time>2010-01-01T00:58:10Z</time>
      </trkpt>
      <trkpt lat="50.17181400" lon="14.26669120">
        <ele>246.23486</ele>
        <time>2010-01-01T00:58:11Z</time>
      </trkpt>
      <trkpt lat="50.17196420" lon="14.26643370">
        <ele>245.75415</ele>
        <time>2010-01-01T00:58:17Z</time>
      </trkpt>
      <trkpt lat="50.17202850" lon="14.26630500">
        <ele>245.75415</ele>
        <time>2010-01-01T00:58:20Z</time>
      </trkpt>
      <trkpt lat="50.17232890" lon="14.26581140">
        <ele>241.90893</ele>
        <time>2010-01-01T00:58:30Z</time>
      </trkpt>
      <trkpt lat="50.17256500" lon="14.26540370">
        <ele>239.98620</ele>
        <time>2010-01-01T00:58:39Z</time>
      </trkpt>
      <trkpt lat="50.17258640" lon="14.26531790">
        <ele>239.02490</ele>
        <time>2010-01-01T00:58:41Z</time>
      </trkpt>
      <trkpt lat="50.17267230" lon="14.26518920">
        <ele>237.58288</ele>
        <time>2010-01-01T00:58:44Z</time>
      </trkpt>
      <trkpt lat="50.17295120" lon="14.26450250">
        <ele>237.58288</ele>
        <time>2010-01-01T00:58:57Z</time>
      </trkpt>
      <trkpt lat="50.17301560" lon="14.26430940">
        <ele>237.58288</ele>
        <time>2010-01-01T00:59:00Z</time>
      </trkpt>
      <trkpt lat="50.17308000" lon="14.26405190">
        <ele>236.14099</ele>
        <time>2010-01-01T00:59:04Z</time>
      </trkpt>
      <trkpt lat="50.17316580" lon="14.26325800">
        <ele>237.58288</ele>
        <time>2010-01-01T00:59:17Z</time>
      </trkpt>
      <trkpt lat="50.17312290" lon="14.26235680">
        <ele>239.50549</ele>
        <time>2010-01-01T00:59:32Z</time>
      </trkpt>
      <trkpt lat="50.17305850" lon="14.26132680">
        <ele>236.62170</ele>
        <time>2010-01-01T00:59:48Z</time>
      </trkpt>
      <trkpt lat="50.17325160" lon="14.26006080">
        <ele>235.66027</ele>
        <time>2010-01-01T01:00:09Z</time>
      </trkpt>
      <trkpt lat="50.17363790" lon="14.25926690">
        <ele>235.17968</ele>
        <time>2010-01-01T01:00:25Z</time>
      </trkpt>
      <trkpt lat="50.17413140" lon="14.25866600">
        <ele>234.69909</ele>
        <time>2010-01-01T01:00:40Z</time>
      </trkpt>
      <trkpt lat="50.17496820" lon="14.25819400">
        <ele>234.69909</ele>
        <time>2010-01-01T01:01:02Z</time>
      </trkpt>
      <trkpt lat="50.17567630" lon="14.25797940">
        <ele>235.66027</ele>
        <time>2010-01-01T01:01:20Z</time>
      </trkpt>
      <trkpt lat="50.17651320" lon="14.25770040">
        <ele>234.21838</ele>
        <time>2010-01-01T01:01:42Z</time>
      </trkpt>
      <trkpt lat="50.17707110" lon="14.25707820">
        <ele>234.21838</ele>
        <time>2010-01-01T01:01:59Z</time>
      </trkpt>
      <trkpt lat="50.17737150" lon="14.25540450">
        <ele>232.77648</ele>
        <time>2010-01-01T01:02:26Z</time>
      </trkpt>
      <trkpt lat="50.17760750" lon="14.25385950">
        <ele>232.29577</ele>
        <time>2010-01-01T01:02:52Z</time>
      </trkpt>
      <trkpt lat="50.17782210" lon="14.25235750">
        <ele>225.56652</ele>
        <time>2010-01-01T01:03:16Z</time>
      </trkpt>
      <trkpt lat="50.17807960" lon="14.25225020">
        <ele>225.08593</ele>
        <time>2010-01-01T01:03:23Z</time>
      </trkpt>
      <trkpt lat="50.17844440" lon="14.25207850">
        <ele>224.60522</ele>
        <time>2010-01-01T01:03:32Z</time>
      </trkpt>
      <trkpt lat="50.17857310" lon="14.25203560">
        <ele>224.60522</ele>
        <time>2010-01-01T01:03:36Z</time>
      </trkpt>
      <trkpt lat="50.17868040" lon="14.25197120">
        <ele>224.60522</ele>
        <time>2010-01-01T01:03:39Z</time>
      </trkpt>
      <trkpt lat="50.17943140" lon="14.25164940">
        <ele>227.00854</ele>
        <time>2010-01-01T01:03:58Z</time>
      </trkpt>
      <trkpt lat="50.17977480" lon="14.25147770">
        <ele>227.96972</ele>
        <time>2010-01-01T01:04:07Z</time>
      </trkpt>
      <trkpt lat="50.18011810" lon="14.25132750">
        <ele>226.52783</ele>
        <time>2010-01-01T01:04:16Z</time>
      </trkpt>
      <trkpt lat="50.17992500" lon="14.25066230">
        <ele>227.00854</ele>
        <time>2010-01-01T01:04:27Z</time>
      </trkpt>
      <trkpt lat="50.17977480" lon="14.25074820">
        <ele>232.29577</ele>
        <time>2010-01-01T01:04:31Z</time>
      </trkpt>
      <trkpt lat="50.17981770" lon="14.25074820">
        <ele>232.29577</ele>
        <time>2010-01-01T01:04:32Z</time>
      </trkpt>
      <trkpt lat="50.18016100" lon="14.25066230">
        <ele>230.37304</ele>
        <time>2010-01-01T01:04:41Z</time>
      </trkpt>
      <trkpt lat="50.18059020" lon="14.25051210">
        <ele>228.93115</ele>
        <time>2010-01-01T01:04:52Z</time>
      </trkpt>
      <trkpt lat="50.18112660" lon="14.25019030">
        <ele>228.93115</ele>
        <time>2010-01-01T01:05:06Z</time>
      </trkpt>
      <trkpt lat="50.18144850" lon="14.24984690">
        <ele>229.41174</ele>
        <time>2010-01-01T01:05:16Z</time>
      </trkpt>
      <trkpt lat="50.18198490" lon="14.24967530">
        <ele>226.04711</ele>
        <time>2010-01-01T01:05:30Z</time>
      </trkpt>
      <trkpt lat="50.18207070" lon="14.24956800">
        <ele>225.08593</ele>
        <time>2010-01-01T01:05:32Z</time>
      </trkpt>
      <trkpt lat="50.18217800" lon="14.24941780">
        <ele>225.08593</ele>
        <time>2010-01-01T01:05:36Z</time>
      </trkpt>
      <trkpt lat="50.18267150" lon="14.24909590">
        <ele>225.56652</ele>
        <time>2010-01-01T01:05:49Z</time>
      </trkpt>
      <trkpt lat="50.18301490" lon="14.24909590">
        <ele>223.64379</ele>
        <time>2010-01-01T01:05:58Z</time>
      </trkpt>
      <trkpt lat="50.18363710" lon="14.24840930">
        <ele>223.16320</ele>
        <time>2010-01-01T01:06:17Z</time>
      </trkpt>
      <trkpt lat="50.18372300" lon="14.24840930">
        <ele>223.16320</ele>
        <time>2010-01-01T01:06:19Z</time>
      </trkpt>
      <trkpt lat="50.18406630" lon="14.24868820">
        <ele>224.12451</ele>
        <time>2010-01-01T01:06:29Z</time>
      </trkpt>
      <trkpt lat="50.18464570" lon="14.24903150">
        <ele>225.08593</ele>
        <time>2010-01-01T01:06:44Z</time>
      </trkpt>
      <trkpt lat="50.18486020" lon="14.24920320">
        <ele>224.60522</ele>
        <time>2010-01-01T01:06:50Z</time>
      </trkpt>
      <trkpt lat="50.18486020" lon="14.24913880">
        <ele>224.60522</ele>
        <time>2010-01-01T01:06:51Z</time>
      </trkpt>
      <trkpt lat="50.18438820" lon="14.24881700">
        <ele>225.56652</ele>
        <time>2010-01-01T01:07:04Z</time>
      </trkpt>
      <trkpt lat="50.18400190" lon="14.24853800">
        <ele>225.56652</ele>
        <time>2010-01-01T01:07:14Z</time>
      </trkpt>
      <trkpt lat="50.18395900" lon="14.24817320">
        <ele>224.60522</ele>
        <time>2010-01-01T01:07:20Z</time>
      </trkpt>
      <trkpt lat="50.18387320" lon="14.24699310">
        <ele>221.24060</ele>
        <time>2010-01-01T01:07:39Z</time>
      </trkpt>
      <trkpt lat="50.18383030" lon="14.24658540">
        <ele>222.20178</ele>
        <time>2010-01-01T01:07:46Z</time>
      </trkpt>
      <trkpt lat="50.18385170" lon="14.24617770">
        <ele>221.24060</ele>
        <time>2010-01-01T01:07:52Z</time>
      </trkpt>
      <trkpt lat="50.18391610" lon="14.24544810">
        <ele>223.16320</ele>
        <time>2010-01-01T01:08:04Z</time>
      </trkpt>
      <trkpt lat="50.18391610" lon="14.24542670">
        <ele>224.60522</ele>
        <time>2010-01-01T01:08:04Z</time>
      </trkpt>
      <trkpt lat="50.18434520" lon="14.24416070">
        <ele>243.83154</ele>
        <time>2010-01-01T01:08:27Z</time>
      </trkpt>
      <trkpt lat="50.18488170" lon="14.24330230">
        <ele>249.59948</ele>
        <time>2010-01-01T01:08:46Z</time>
      </trkpt>
      <trkpt lat="50.18518210" lon="14.24276590">
        <ele>249.59948</ele>
        <time>2010-01-01T01:08:58Z</time>
      </trkpt>
      <trkpt lat="50.18550400" lon="14.24225090">
        <ele>248.63818</ele>
        <time>2010-01-01T01:09:09Z</time>
      </trkpt>
      <trkpt lat="50.18636230" lon="14.24203630">
        <ele>250.08020</ele>
        <time>2010-01-01T01:09:31Z</time>
      </trkpt>
      <trkpt lat="50.18711330" lon="14.24220800">
        <ele>252.96398</ele>
        <time>2010-01-01T01:09:50Z</time>
      </trkpt>
      <trkpt lat="50.18889430" lon="14.24261570">
        <ele>255.84802</ele>
        <time>2010-01-01T01:10:34Z</time>
      </trkpt>
      <trkpt lat="50.18977400" lon="14.24334530">
        <ele>257.77075</ele>
        <time>2010-01-01T01:10:59Z</time>
      </trkpt>
      <trkpt lat="50.19001010" lon="14.24383880">
        <ele>259.69335</ele>
        <time>2010-01-01T01:11:09Z</time>
      </trkpt>
      <trkpt lat="50.19037490" lon="14.24461130">
        <ele>261.61596</ele>
        <time>2010-01-01T01:11:24Z</time>
      </trkpt>
      <trkpt lat="50.19093280" lon="14.24540520">
        <ele>266.42248</ele>
        <time>2010-01-01T01:11:43Z</time>
      </trkpt>
      <trkpt lat="50.19097570" lon="14.24542670">
        <ele>266.42248</ele>
        <time>2010-01-01T01:11:44Z</time>
      </trkpt>
      <trkpt lat="50.19106150" lon="14.24546960">
        <ele>269.30651</ele>
        <time>2010-01-01T01:11:46Z</time>
      </trkpt>
      <trkpt lat="50.19185540" lon="14.24596310">
        <ele>275.55505</ele>
        <time>2010-01-01T01:12:08Z</time>
      </trkpt>
      <trkpt lat="50.19209150" lon="14.24619910">
        <ele>275.07446</ele>
        <time>2010-01-01T01:12:15Z</time>
      </trkpt>
      <trkpt lat="50.19256350" lon="14.24667120">
        <ele>273.15185</ele>
        <time>2010-01-01T01:12:29Z</time>
      </trkpt>
      <trkpt lat="50.19262790" lon="14.24669270">
        <ele>272.67114</ele>
        <time>2010-01-01T01:12:30Z</time>
      </trkpt>
      <trkpt lat="50.19350770" lon="14.24662830">
        <ele>265.94189</ele>
        <time>2010-01-01T01:12:52Z</time>
      </trkpt>
      <trkpt lat="50.19365790" lon="14.24660680">
        <ele>263.53857</ele>
        <time>2010-01-01T01:12:56Z</time>
      </trkpt>
      <trkpt lat="50.19451620" lon="14.24654250">
        <ele>252.00280</ele>
        <time>2010-01-01T01:13:17Z</time>
      </trkpt>
      <trkpt lat="50.19483800" lon="14.24645660">
        <ele>250.08020</ele>
        <time>2010-01-01T01:13:25Z</time>
      </trkpt>
      <trkpt lat="50.19511700" lon="14.24617770">
        <ele>249.11877</ele>
        <time>2010-01-01T01:13:34Z</time>
      </trkpt>
      <trkpt lat="50.19541740" lon="14.24607040">
        <ele>248.63818</ele>
        <time>2010-01-01T01:13:41Z</time>
      </trkpt>
      <trkpt lat="50.19498830" lon="14.24710040">
        <ele>248.63818</ele>
        <time>2010-01-01T01:14:01Z</time>
      </trkpt>
      <trkpt lat="50.19500970" lon="14.24722910">
        <ele>248.63818</ele>
        <time>2010-01-01T01:14:03Z</time>
      </trkpt>
      <trkpt lat="50.19539590" lon="14.24787280">
        <ele>247.67675</ele>
        <time>2010-01-01T01:14:17Z</time>
      </trkpt>
      <trkpt lat="50.19588950" lon="14.24697160">
        <ele>247.67675</ele>
        <time>2010-01-01T01:14:36Z</time>
      </trkpt>
      <trkpt lat="50.19561050" lon="14.24800160">
        <ele>242.38964</ele>
        <time>2010-01-01T01:14:54Z</time>
      </trkpt>
      <trkpt lat="50.19582510" lon="14.24740080">
        <ele>239.50549</ele>
        <time>2010-01-01T01:15:05Z</time>
      </trkpt>
      <trkpt lat="50.19608260" lon="14.24701450">
        <ele>231.33435</ele>
        <time>2010-01-01T01:15:14Z</time>
      </trkpt>
      <trkpt lat="50.19625430" lon="14.24718620">
        <ele>227.48913</ele>
        <time>2010-01-01T01:15:19Z</time>
      </trkpt>
      <trkpt lat="50.19625430" lon="14.24731490">
        <ele>218.35656</ele>
        <time>2010-01-01T01:15:21Z</time>
      </trkpt>
      <trkpt lat="50.19625430" lon="14.24774410">
        <ele>214.51123</ele>
        <time>2010-01-01T01:15:28Z</time>
      </trkpt>
      <trkpt lat="50.19623280" lon="14.24868820">
        <ele>213.06933</ele>
        <time>2010-01-01T01:15:43Z</time>
      </trkpt>
      <trkpt lat="50.19657610" lon="14.24933200">
        <ele>211.62744</ele>
        <time>2010-01-01T01:15:56Z</time>
      </trkpt>
      <trkpt lat="50.19721980" lon="14.24909590">
        <ele>212.58862</ele>
        <time>2010-01-01T01:16:12Z</time>
      </trkpt>
      <trkpt lat="50.19762750" lon="14.24946070">
        <ele>212.10803</ele>
        <time>2010-01-01T01:16:24Z</time>
      </trkpt>
      <trkpt lat="50.19797090" lon="14.24956800">
        <ele>212.10803</ele>
        <time>2010-01-01T01:16:33Z</time>
      </trkpt>
      <trkpt lat="50.19812110" lon="14.24963240">
        <ele>211.62744</ele>
        <time>2010-01-01T01:16:37Z</time>
      </trkpt>
      <trkpt lat="50.19835710" lon="14.24969670">
        <ele>211.14672</ele>
        <time>2010-01-01T01:16:43Z</time>
      </trkpt>
      <trkpt lat="50.19848590" lon="14.24973960">
        <ele>209.70483</ele>
        <time>2010-01-01T01:16:46Z</time>
      </trkpt>
      <trkpt lat="50.19887210" lon="14.25040480">
        <ele>206.34008</ele>
        <time>2010-01-01T01:17:00Z</time>
      </trkpt>
      <trkpt lat="50.19900080" lon="14.25072670">
        <ele>206.34008</ele>
        <time>2010-01-01T01:17:06Z</time>
      </trkpt>
      <trkpt lat="50.19951580" lon="14.25190690">
        <ele>206.82067</ele>
        <time>2010-01-01T01:17:29Z</time>
      </trkpt>
      <trkpt lat="50.20046000" lon="14.25242190">
        <ele>206.82067</ele>
        <time>2010-01-01T01:17:54Z</time>
      </trkpt>
      <trkpt lat="50.20114660" lon="14.25304410">
        <ele>207.30139</ele>
        <time>2010-01-01T01:18:14Z</time>
      </trkpt>
      <trkpt lat="50.20155430" lon="14.25448180">
        <ele>204.41748</ele>
        <time>2010-01-01T01:18:39Z</time>
      </trkpt>
      <trkpt lat="50.20164010" lon="14.25478220">
        <ele>202.97546</ele>
        <time>2010-01-01T01:18:44Z</time>
      </trkpt>
      <trkpt lat="50.20290610" lon="14.25615550">
        <ele>200.09167</ele>
        <time>2010-01-01T01:19:22Z</time>
      </trkpt>
      <trkpt lat="50.20363570" lon="14.25688510">
        <ele>200.09167</ele>
        <time>2010-01-01T01:19:44Z</time>
      </trkpt>
      <trkpt lat="50.20374300" lon="14.25699230">
        <ele>202.01428</ele>
        <time>2010-01-01T01:19:47Z</time>
      </trkpt>
      <trkpt lat="50.20412920" lon="14.25737860">
        <ele>202.01428</ele>
        <time>2010-01-01T01:19:58Z</time>
      </trkpt>
      <trkpt lat="50.20445110" lon="14.25770040">
        <ele>202.01428</ele>
        <time>2010-01-01T01:20:08Z</time>
      </trkpt>
      <trkpt lat="50.20451550" lon="14.25776480">
        <ele>201.53356</ele>
        <time>2010-01-01T01:20:10Z</time>
      </trkpt>
      <trkpt lat="50.20466570" lon="14.25791500">
        <ele>200.57226</ele>
        <time>2010-01-01T01:20:14Z</time>
      </trkpt>
      <trkpt lat="50.20432230" lon="14.25928830">
        <ele>199.61083</ele>
        <time>2010-01-01T01:20:38Z</time>
      </trkpt>
      <trkpt lat="50.20455840" lon="14.25971750">
        <ele>199.13012</ele>
        <time>2010-01-01T01:20:47Z</time>
      </trkpt>
      <trkpt lat="50.20503040" lon="14.26038270">
        <ele>198.64953</ele>
        <time>2010-01-01T01:21:03Z</time>
      </trkpt>
      <trkpt lat="50.20545960" lon="14.26111220">
        <ele>197.20751</ele>
        <time>2010-01-01T01:21:18Z</time>
      </trkpt>
      <trkpt lat="50.20586730" lon="14.26199200">
        <ele>196.24633</ele>
        <time>2010-01-01T01:21:36Z</time>
      </trkpt>
      <trkpt lat="50.20629640" lon="14.26280740">
        <ele>196.24633</ele>
        <time>2010-01-01T01:21:52Z</time>
      </trkpt>
      <trkpt lat="50.20670410" lon="14.26355840">
        <ele>195.76562</ele>
        <time>2010-01-01T01:22:08Z</time>
      </trkpt>
      <trkpt lat="50.20676850" lon="14.26364420">
        <ele>196.72692</ele>
        <time>2010-01-01T01:22:10Z</time>
      </trkpt>
      <trkpt lat="50.20687580" lon="14.26368710">
        <ele>196.24633</ele>
        <time>2010-01-01T01:22:13Z</time>
      </trkpt>
      <trkpt lat="50.20745520" lon="14.26392320">
        <ele>195.28491</ele>
        <time>2010-01-01T01:22:28Z</time>
      </trkpt>
      <trkpt lat="50.20818470" lon="14.26476000">
        <ele>196.24633</ele>
        <time>2010-01-01T01:22:50Z</time>
      </trkpt>
      <trkpt lat="50.20829200" lon="14.26536080">
        <ele>195.76562</ele>
        <time>2010-01-01T01:23:00Z</time>
      </trkpt>
      <trkpt lat="50.20839930" lon="14.26630500">
        <ele>195.76562</ele>
        <time>2010-01-01T01:23:16Z</time>
      </trkpt>
      <trkpt lat="50.20861390" lon="14.26697020">
        <ele>195.28491</ele>
        <time>2010-01-01T01:23:27Z</time>
      </trkpt>
      <trkpt lat="50.20900010" lon="14.26746370">
        <ele>194.32373</ele>
        <time>2010-01-01T01:23:40Z</time>
      </trkpt>
      <trkpt lat="50.20927910" lon="14.26815030">
        <ele>193.84301</ele>
        <time>2010-01-01T01:23:53Z</time>
      </trkpt>
      <trkpt lat="50.20992280" lon="14.26915880">
        <ele>192.40112</ele>
        <time>2010-01-01T01:24:15Z</time>
      </trkpt>
      <trkpt lat="50.21013740" lon="14.26948070">
        <ele>192.88171</ele>
        <time>2010-01-01T01:24:23Z</time>
      </trkpt>
      <trkpt lat="50.21035190" lon="14.27003860">
        <ele>192.88171</ele>
        <time>2010-01-01T01:24:33Z</time>
      </trkpt>
      <trkpt lat="50.21063090" lon="14.27044630">
        <ele>192.88171</ele>
        <time>2010-01-01T01:24:43Z</time>
      </trkpt>
      <trkpt lat="50.21088840" lon="14.27104710">
        <ele>192.88171</ele>
        <time>2010-01-01T01:24:54Z</time>
      </trkpt>
      <trkpt lat="50.21123170" lon="14.27192690">
        <ele>192.40112</ele>
        <time>2010-01-01T01:25:11Z</time>
      </trkpt>
      <trkpt lat="50.21153210" lon="14.27246330">
        <ele>191.92028</ele>
        <time>2010-01-01T01:25:22Z</time>
      </trkpt>
      <trkpt lat="50.21159650" lon="14.27261350">
        <ele>192.40112</ele>
        <time>2010-01-01T01:25:25Z</time>
      </trkpt>
      <trkpt lat="50.21159650" lon="14.27267790">
        <ele>191.43957</ele>
        <time>2010-01-01T01:25:26Z</time>
      </trkpt>
      <trkpt lat="50.21174670" lon="14.27319290">
        <ele>190.95898</ele>
        <time>2010-01-01T01:25:35Z</time>
      </trkpt>
      <trkpt lat="50.21213290" lon="14.27398680">
        <ele>190.47839</ele>
        <time>2010-01-01T01:25:51Z</time>
      </trkpt>
      <trkpt lat="50.21217580" lon="14.27402970">
        <ele>190.47839</ele>
        <time>2010-01-01T01:25:52Z</time>
      </trkpt>
      <trkpt lat="50.21256210" lon="14.27499530">
        <ele>189.99768</ele>
        <time>2010-01-01T01:26:10Z</time>
      </trkpt>
      <trkpt lat="50.21303420" lon="14.27578930">
        <ele>190.47839</ele>
        <time>2010-01-01T01:26:27Z</time>
      </trkpt>
      <trkpt lat="50.21329160" lon="14.27611110">
        <ele>190.47839</ele>
        <time>2010-01-01T01:26:36Z</time>
      </trkpt>
      <trkpt lat="50.21387100" lon="14.27669050">
        <ele>188.55578</ele>
        <time>2010-01-01T01:26:53Z</time>
      </trkpt>
      <trkpt lat="50.21412850" lon="14.27699090">
        <ele>187.59436</ele>
        <time>2010-01-01T01:27:01Z</time>
      </trkpt>
      <trkpt lat="50.21462200" lon="14.27744150">
        <ele>186.63317</ele>
        <time>2010-01-01T01:27:15Z</time>
      </trkpt>
      <trkpt lat="50.21485810" lon="14.27761320">
        <ele>186.63317</ele>
        <time>2010-01-01T01:27:21Z</time>
      </trkpt>
      <trkpt lat="50.21492240" lon="14.27757020">
        <ele>186.63317</ele>
        <time>2010-01-01T01:27:23Z</time>
      </trkpt>
      <trkpt lat="50.21526580" lon="14.27748440">
        <ele>186.63317</ele>
        <time>2010-01-01T01:27:32Z</time>
      </trkpt>
      <trkpt lat="50.21567340" lon="14.27778480">
        <ele>188.55578</ele>
        <time>2010-01-01T01:27:43Z</time>
      </trkpt>
      <trkpt lat="50.21620990" lon="14.27814960">
        <ele>188.55578</ele>
        <time>2010-01-01T01:27:58Z</time>
      </trkpt>
      <trkpt lat="50.21655320" lon="14.27864310">
        <ele>188.55578</ele>
        <time>2010-01-01T01:28:09Z</time>
      </trkpt>
      <trkpt lat="50.21685360" lon="14.27922250">
        <ele>188.55578</ele>
        <time>2010-01-01T01:28:21Z</time>
      </trkpt>
      <trkpt lat="50.21721840" lon="14.27997350">
        <ele>188.07507</ele>
        <time>2010-01-01T01:28:36Z</time>
      </trkpt>
      <trkpt lat="50.21723990" lon="14.28003790">
        <ele>187.59436</ele>
        <time>2010-01-01T01:28:37Z</time>
      </trkpt>
      <trkpt lat="50.21721840" lon="14.28057430">
        <ele>187.11376</ele>
        <time>2010-01-01T01:28:46Z</time>
      </trkpt>
      <trkpt lat="50.21743300" lon="14.28143260">
        <ele>187.11376</ele>
        <time>2010-01-01T01:29:00Z</time>
      </trkpt>
      <trkpt lat="50.21756170" lon="14.28218360">
        <ele>187.59436</ele>
        <time>2010-01-01T01:29:13Z</time>
      </trkpt>
      <trkpt lat="50.21741150" lon="14.28254840">
        <ele>185.19116</ele>
        <time>2010-01-01T01:29:20Z</time>
      </trkpt>
      <trkpt lat="50.21739010" lon="14.28325650">
        <ele>182.78784</ele>
        <time>2010-01-01T01:29:31Z</time>
      </trkpt>
      <trkpt lat="50.21730420" lon="14.28407190">
        <ele>181.34582</ele>
        <time>2010-01-01T01:29:44Z</time>
      </trkpt>
      <trkpt lat="50.21715400" lon="14.28501610">
        <ele>179.42321</ele>
        <time>2010-01-01T01:30:00Z</time>
      </trkpt>
      <trkpt lat="50.21708970" lon="14.28598170">
        <ele>177.50061</ele>
        <time>2010-01-01T01:30:15Z</time>
      </trkpt>
      <trkpt lat="50.21704670" lon="14.28699020">
        <ele>175.57788</ele>
        <time>2010-01-01T01:30:31Z</time>
      </trkpt>
      <trkpt lat="50.21678920" lon="14.28714040">
        <ele>173.17468</ele>
        <time>2010-01-01T01:30:38Z</time>
      </trkpt>
      <trkpt lat="50.21601680" lon="14.28714040">
        <ele>172.21325</ele>
        <time>2010-01-01T01:30:57Z</time>
      </trkpt>
      <trkpt lat="50.21588800" lon="14.28718330">
        <ele>171.73266</ele>
        <time>2010-01-01T01:31:01Z</time>
      </trkpt>
      <trkpt lat="50.21582370" lon="14.28741930">
        <ele>190.47839</ele>
        <time>2010-01-01T01:31:05Z</time>
      </trkpt>
      <trkpt lat="50.21573780" lon="14.28750510">
        <ele>175.09729</ele>
        <time>2010-01-01T01:31:07Z</time>
      </trkpt>
      <trkpt lat="50.21539450" lon="14.28748370">
        <ele>174.61657</ele>
        <time>2010-01-01T01:31:16Z</time>
      </trkpt>
      <trkpt lat="50.21505120" lon="14.28737640">
        <ele>176.05859</ele>
        <time>2010-01-01T01:31:24Z</time>
      </trkpt>
      <trkpt lat="50.21449330" lon="14.28748370">
        <ele>176.53930</ele>
        <time>2010-01-01T01:31:38Z</time>
      </trkpt>
      <trkpt lat="50.21399970" lon="14.28791280">
        <ele>177.98120</ele>
        <time>2010-01-01T01:31:52Z</time>
      </trkpt>
      <trkpt lat="50.21369930" lon="14.28817030">
        <ele>183.74902</ele>
        <time>2010-01-01T01:32:01Z</time>
      </trkpt>
      <trkpt lat="50.21350620" lon="14.28842780">
        <ele>185.67175</ele>
        <time>2010-01-01T01:32:07Z</time>
      </trkpt>
      <trkpt lat="50.21339890" lon="14.28898570">
        <ele>188.07507</ele>
        <time>2010-01-01T01:32:17Z</time>
      </trkpt>
      <trkpt lat="50.21337750" lon="14.28956510">
        <ele>189.51696</ele>
        <time>2010-01-01T01:32:26Z</time>
      </trkpt>
      <trkpt lat="50.21333460" lon="14.29033760">
        <ele>190.95898</ele>
        <time>2010-01-01T01:32:38Z</time>
      </trkpt>
      <trkpt lat="50.21320580" lon="14.29158210">
        <ele>192.40112</ele>
        <time>2010-01-01T01:32:58Z</time>
      </trkpt>
      <trkpt lat="50.21309850" lon="14.29181810">
        <ele>197.68823</ele>
        <time>2010-01-01T01:33:03Z</time>
      </trkpt>
      <trkpt lat="50.21303420" lon="14.29231170">
        <ele>193.84301</ele>
        <time>2010-01-01T01:33:11Z</time>
      </trkpt>
      <trkpt lat="50.21318440" lon="14.29166790">
        <ele>194.32373</ele>
        <time>2010-01-01T01:33:22Z</time>
      </trkpt>
      <trkpt lat="50.21320580" lon="14.29055210">
        <ele>192.88171</ele>
        <time>2010-01-01T01:33:40Z</time>
      </trkpt>
      <trkpt lat="50.21322730" lon="14.28932910">
        <ele>193.84301</ele>
        <time>2010-01-01T01:33:59Z</time>
      </trkpt>
      <trkpt lat="50.21339890" lon="14.28907160">
        <ele>193.84301</ele>
        <time>2010-01-01T01:34:05Z</time>
      </trkpt>
      <trkpt lat="50.21404270" lon="14.28859950">
        <ele>193.84301</ele>
        <time>2010-01-01T01:34:23Z</time>
      </trkpt>
      <trkpt lat="50.21494390" lon="14.28795580">
        <ele>192.88171</ele>
        <time>2010-01-01T01:34:47Z</time>
      </trkpt>
      <trkpt lat="50.21582370" lon="14.28741930">
        <ele>190.47839</ele>
        <time>2010-01-01T01:35:11Z</time>
      </trkpt>
      <trkpt lat="50.21618840" lon="14.28716180">
        <ele>189.99768</ele>
        <time>2010-01-01T01:35:21Z</time>
      </trkpt>
      <trkpt lat="50.21691800" lon="14.28703310">
        <ele>189.03637</ele>
        <time>2010-01-01T01:35:39Z</time>
      </trkpt>
      <trkpt lat="50.21717550" lon="14.28694730">
        <ele>185.19116</ele>
        <time>2010-01-01T01:35:46Z</time>
      </trkpt>
      <trkpt lat="50.21779780" lon="14.28686140">
        <ele>185.19116</ele>
        <time>2010-01-01T01:36:01Z</time>
      </trkpt>
      <trkpt lat="50.21814110" lon="14.28722620">
        <ele>185.19116</ele>
        <time>2010-01-01T01:36:11Z</time>
      </trkpt>
      <trkpt lat="50.21831270" lon="14.28832050">
        <ele>184.71057</ele>
        <time>2010-01-01T01:36:29Z</time>
      </trkpt>
      <trkpt lat="50.21842000" lon="14.28883550">
        <ele>183.74902</ele>
        <time>2010-01-01T01:36:38Z</time>
      </trkpt>
      <trkpt lat="50.21876340" lon="14.29050920">
        <ele>180.86523</ele>
        <time>2010-01-01T01:37:06Z</time>
      </trkpt>
      <trkpt lat="50.21947150" lon="14.29224730">
        <ele>181.82641</ele>
        <time>2010-01-01T01:37:39Z</time>
      </trkpt>
      <trkpt lat="50.22045850" lon="14.29366350">
        <ele>181.34582</ele>
        <time>2010-01-01T01:38:12Z</time>
      </trkpt>
      <trkpt lat="50.22157430" lon="14.29484370">
        <ele>179.90380</ele>
        <time>2010-01-01T01:38:46Z</time>
      </trkpt>
      <trkpt lat="50.22275450" lon="14.29606680">
        <ele>178.94262</ele>
        <time>2010-01-01T01:39:21Z</time>
      </trkpt>
      <trkpt lat="50.22346260" lon="14.29634570">
        <ele>176.05859</ele>
        <time>2010-01-01T01:39:39Z</time>
      </trkpt>
      <trkpt lat="50.22436380" lon="14.29656030">
        <ele>173.65527</ele>
        <time>2010-01-01T01:40:02Z</time>
      </trkpt>
      <trkpt lat="50.22470710" lon="14.29671050">
        <ele>174.13586</ele>
        <time>2010-01-01T01:40:11Z</time>
      </trkpt>
      <trkpt lat="50.22479300" lon="14.29703240">
        <ele>174.13586</ele>
        <time>2010-01-01T01:40:16Z</time>
      </trkpt>
      <trkpt lat="50.22481440" lon="14.29718260">
        <ele>174.13586</ele>
        <time>2010-01-01T01:40:19Z</time>
      </trkpt>
      <trkpt lat="50.22505040" lon="14.29808380">
        <ele>175.57788</ele>
        <time>2010-01-01T01:40:34Z</time>
      </trkpt>
      <trkpt lat="50.22517920" lon="14.29864170">
        <ele>175.09729</ele>
        <time>2010-01-01T01:40:44Z</time>
      </trkpt>
      <trkpt lat="50.22535090" lon="14.29853440">
        <ele>174.61657</ele>
        <time>2010-01-01T01:40:48Z</time>
      </trkpt>
      <trkpt lat="50.22590880" lon="14.29789070">
        <ele>173.65527</ele>
        <time>2010-01-01T01:41:05Z</time>
      </trkpt>
      <trkpt lat="50.22681000" lon="14.29728980">
        <ele>171.25207</ele>
        <time>2010-01-01T01:41:30Z</time>
      </trkpt>
      <trkpt lat="50.22753950" lon="14.29701090">
        <ele>170.29064</ele>
        <time>2010-01-01T01:41:48Z</time>
      </trkpt>
      <trkpt lat="50.22756100" lon="14.29701090">
        <ele>168.84875</ele>
        <time>2010-01-01T01:41:49Z</time>
      </trkpt>
      <trkpt lat="50.22796870" lon="14.29673190">
        <ele>165.48413</ele>
        <time>2010-01-01T01:42:00Z</time>
      </trkpt>
      <trkpt lat="50.22867680" lon="14.29621700">
        <ele>166.44531</ele>
        <time>2010-01-01T01:42:19Z</time>
      </trkpt>
      <trkpt lat="50.22884850" lon="14.29574490">
        <ele>167.40673</ele>
        <time>2010-01-01T01:42:28Z</time>
      </trkpt>
      <trkpt lat="50.22889140" lon="14.29529430">
        <ele>168.36804</ele>
        <time>2010-01-01T01:42:35Z</time>
      </trkpt>
      <trkpt lat="50.23005010" lon="14.29531570">
        <ele>168.84875</ele>
        <time>2010-01-01T01:43:04Z</time>
      </trkpt>
      <trkpt lat="50.23060800" lon="14.29514410">
        <ele>167.88732</ele>
        <time>2010-01-01T01:43:18Z</time>
      </trkpt>
      <trkpt lat="50.23108010" lon="14.29538010">
        <ele>168.36804</ele>
        <time>2010-01-01T01:43:31Z</time>
      </trkpt>
      <trkpt lat="50.23120880" lon="14.29546590">
        <ele>167.88732</ele>
        <time>2010-01-01T01:43:34Z</time>
      </trkpt>
      <trkpt lat="50.23148780" lon="14.29553030">
        <ele>167.40673</ele>
        <time>2010-01-01T01:43:41Z</time>
      </trkpt>
      <trkpt lat="50.23168090" lon="14.29531570">
        <ele>166.92602</ele>
        <time>2010-01-01T01:43:47Z</time>
      </trkpt>
      <trkpt lat="50.23170230" lon="14.29510120">
        <ele>165.96472</ele>
        <time>2010-01-01T01:43:51Z</time>
      </trkpt>
      <trkpt lat="50.23170230" lon="14.29469350">
        <ele>165.96472</ele>
        <time>2010-01-01T01:43:57Z</time>
      </trkpt>
      <trkpt lat="50.23176670" lon="14.29419990">
        <ele>165.96472</ele>
        <time>2010-01-01T01:44:05Z</time>
      </trkpt>
      <trkpt lat="50.23187400" lon="14.29437160">
        <ele>165.48413</ele>
        <time>2010-01-01T01:44:09Z</time>
      </trkpt>
      <trkpt lat="50.23228170" lon="14.29503680">
        <ele>165.48413</ele>
        <time>2010-01-01T01:44:24Z</time>
      </trkpt>
      <trkpt lat="50.23262500" lon="14.29546590">
        <ele>165.48413</ele>
        <time>2010-01-01T01:44:34Z</time>
      </trkpt>
      <trkpt lat="50.23356910" lon="14.29690360">
        <ele>164.52270</ele>
        <time>2010-01-01T01:45:07Z</time>
      </trkpt>
      <trkpt lat="50.23380520" lon="14.29722550">
        <ele>165.00341</ele>
        <time>2010-01-01T01:45:15Z</time>
      </trkpt>
      <trkpt lat="50.23423430" lon="14.29722550">
        <ele>162.60009</ele>
        <time>2010-01-01T01:45:26Z</time>
      </trkpt>
      <trkpt lat="50.23496390" lon="14.29759030">
        <ele>160.19689</ele>
        <time>2010-01-01T01:45:45Z</time>
      </trkpt>
      <trkpt lat="50.23577930" lon="14.29806230">
        <ele>161.15820</ele>
        <time>2010-01-01T01:46:06Z</time>
      </trkpt>
      <trkpt lat="50.23586510" lon="14.29812670">
        <ele>161.63891</ele>
        <time>2010-01-01T01:46:09Z</time>
      </trkpt>
      <trkpt lat="50.23674490" lon="14.29801940">
        <ele>160.67749</ele>
        <time>2010-01-01T01:46:31Z</time>
      </trkpt>
      <trkpt lat="50.23698090" lon="14.29797650">
        <ele>161.15820</ele>
        <time>2010-01-01T01:46:37Z</time>
      </trkpt>
      <trkpt lat="50.23706670" lon="14.29834130">
        <ele>161.15820</ele>
        <time>2010-01-01T01:46:43Z</time>
      </trkpt>
      <trkpt lat="50.23732420" lon="14.29973600">
        <ele>162.11950</ele>
        <time>2010-01-01T01:47:06Z</time>
      </trkpt>
      <trkpt lat="50.23745300" lon="14.30042270">
        <ele>162.11950</ele>
        <time>2010-01-01T01:47:17Z</time>
      </trkpt>
      <trkpt lat="50.23756030" lon="14.30110930">
        <ele>163.08081</ele>
        <time>2010-01-01T01:47:29Z</time>
      </trkpt>
      <trkpt lat="50.23766760" lon="14.30198910">
        <ele>163.56152</ele>
        <time>2010-01-01T01:47:43Z</time>
      </trkpt>
      <trkpt lat="50.23773190" lon="14.30310490">
        <ele>165.00341</ele>
        <time>2010-01-01T01:48:01Z</time>
      </trkpt>
      <trkpt lat="50.23773190" lon="14.30316930">
        <ele>165.48413</ele>
        <time>2010-01-01T01:48:02Z</time>
      </trkpt>
      <trkpt lat="50.23863320" lon="14.30533650">
        <ele>165.96472</ele>
        <time>2010-01-01T01:48:43Z</time>
      </trkpt>
      <trkpt lat="50.23854730" lon="14.30578710">
        <ele>164.52270</ele>
        <time>2010-01-01T01:48:50Z</time>
      </trkpt>
      <trkpt lat="50.23848300" lon="14.30613040">
        <ele>165.48413</ele>
        <time>2010-01-01T01:48:56Z</time>
      </trkpt>
      <trkpt lat="50.23841860" lon="14.30643080">
        <ele>168.36804</ele>
        <time>2010-01-01T01:49:01Z</time>
      </trkpt>
      <trkpt lat="50.23841860" lon="14.30688140">
        <ele>167.40673</ele>
        <time>2010-01-01T01:49:08Z</time>
      </trkpt>
      <trkpt lat="50.23846150" lon="14.30778260">
        <ele>165.48413</ele>
        <time>2010-01-01T01:49:23Z</time>
      </trkpt>
      <trkpt lat="50.23871900" lon="14.30872680">
        <ele>163.56152</ele>
        <time>2010-01-01T01:49:39Z</time>
      </trkpt>
      <trkpt lat="50.23876190" lon="14.30883410">
        <ele>163.56152</ele>
        <time>2010-01-01T01:49:41Z</time>
      </trkpt>
      <trkpt lat="50.23910520" lon="14.31014300">
        <ele>160.67749</ele>
        <time>2010-01-01T01:50:03Z</time>
      </trkpt>
      <trkpt lat="50.23912670" lon="14.31037900">
        <ele>160.19689</ele>
        <time>2010-01-01T01:50:07Z</time>
      </trkpt>
      <trkpt lat="50.23944850" lon="14.31104420">
        <ele>159.23547</ele>
        <time>2010-01-01T01:50:20Z</time>
      </trkpt>
      <trkpt lat="50.23953440" lon="14.31091550">
        <ele>159.23547</ele>
        <time>2010-01-01T01:50:23Z</time>
      </trkpt>
      <trkpt lat="50.23942710" lon="14.31160210">
        <ele>157.31286</ele>
        <time>2010-01-01T01:50:35Z</time>
      </trkpt>
      <trkpt lat="50.23927690" lon="14.31226730">
        <ele>158.75476</ele>
        <time>2010-01-01T01:50:46Z</time>
      </trkpt>
      <trkpt lat="50.23931980" lon="14.31243900">
        <ele>158.75476</ele>
        <time>2010-01-01T01:50:49Z</time>
      </trkpt>
      <trkpt lat="50.23931980" lon="14.31284670">
        <ele>159.23547</ele>
        <time>2010-01-01T01:50:55Z</time>
      </trkpt>
      <trkpt lat="50.23940560" lon="14.31280370">
        <ele>159.71618</ele>
        <time>2010-01-01T01:50:58Z</time>
      </trkpt>
      <trkpt lat="50.23949150" lon="14.31254630">
        <ele>157.31286</ele>
        <time>2010-01-01T01:51:02Z</time>
      </trkpt>
      <trkpt lat="50.23962020" lon="14.31252480">
        <ele>156.35156</ele>
        <time>2010-01-01T01:51:05Z</time>
      </trkpt>
      <trkpt lat="50.24030690" lon="14.31273940">
        <ele>159.71618</ele>
        <time>2010-01-01T01:51:23Z</time>
      </trkpt>
      <trkpt lat="50.24107930" lon="14.31288960">
        <ele>159.23547</ele>
        <time>2010-01-01T01:51:42Z</time>
      </trkpt>
      <trkpt lat="50.24133680" lon="14.31271790">
        <ele>158.27416</ele>
        <time>2010-01-01T01:51:49Z</time>
      </trkpt>
      <trkpt lat="50.24135830" lon="14.31261060">
        <ele>157.31286</ele>
        <time>2010-01-01T01:51:51Z</time>
      </trkpt>
      <trkpt lat="50.24183030" lon="14.31078670">
        <ele>154.42895</ele>
        <time>2010-01-01T01:52:22Z</time>
      </trkpt>
      <trkpt lat="50.24172310" lon="14.31065800">
        <ele>154.42895</ele>
        <time>2010-01-01T01:52:26Z</time>
      </trkpt>
      <trkpt lat="50.24176600" lon="14.31072240">
        <ele>155.39025</ele>
        <time>2010-01-01T01:52:27Z</time>
      </trkpt>
      <trkpt lat="50.24178740" lon="14.31072240">
        <ele>152.50634</ele>
        <time>2010-01-01T01:52:28Z</time>
      </trkpt>
      <trkpt lat="50.24193760" lon="14.31033610">
        <ele>152.98693</ele>
        <time>2010-01-01T01:52:35Z</time>
      </trkpt>
      <trkpt lat="50.24204490" lon="14.31044340">
        <ele>153.94836</ele>
        <time>2010-01-01T01:52:38Z</time>
      </trkpt>
      <trkpt lat="50.24273160" lon="14.31097980">
        <ele>156.83215</ele>
        <time>2010-01-01T01:52:57Z</time>
      </trkpt>
      <trkpt lat="50.24346110" lon="14.31179520">
        <ele>159.23547</ele>
        <time>2010-01-01T01:53:19Z</time>
      </trkpt>
      <trkpt lat="50.24352550" lon="14.31188110">
        <ele>159.23547</ele>
        <time>2010-01-01T01:53:22Z</time>
      </trkpt>
      <trkpt lat="50.24399760" lon="14.31175230">
        <ele>161.63891</ele>
        <time>2010-01-01T01:53:33Z</time>
      </trkpt>
      <trkpt lat="50.24395470" lon="14.31299690">
        <ele>164.52270</ele>
        <time>2010-01-01T01:53:53Z</time>
      </trkpt>
      <trkpt lat="50.24459840" lon="14.31346890">
        <ele>166.92602</ele>
        <time>2010-01-01T01:54:11Z</time>
      </trkpt>
      <trkpt lat="50.24479150" lon="14.31368350">
        <ele>167.40673</ele>
        <time>2010-01-01T01:54:17Z</time>
      </trkpt>
      <trkpt lat="50.24481300" lon="14.31372640">
        <ele>167.40673</ele>
        <time>2010-01-01T01:54:18Z</time>
      </trkpt>
      <trkpt lat="50.24524210" lon="14.31424140">
        <ele>165.00341</ele>
        <time>2010-01-01T01:54:31Z</time>
      </trkpt>
      <trkpt lat="50.24477010" lon="14.31432720">
        <ele>164.04211</ele>
        <time>2010-01-01T01:54:43Z</time>
      </trkpt>
      <trkpt lat="50.24494170" lon="14.31432720">
        <ele>161.15820</ele>
        <time>2010-01-01T01:54:47Z</time>
      </trkpt>
      <trkpt lat="50.24522070" lon="14.31419850">
        <ele>163.56152</ele>
        <time>2010-01-01T01:54:55Z</time>
      </trkpt>
      <trkpt lat="50.24494170" lon="14.31432720">
        <ele>161.15820</ele>
        <time>2010-01-01T01:55:02Z</time>
      </trkpt>
      <trkpt lat="50.24481300" lon="14.31462760">
        <ele>163.56152</ele>
        <time>2010-01-01T01:55:07Z</time>
      </trkpt>
      <trkpt lat="50.24438380" lon="14.31559320">
        <ele>160.19689</ele>
        <time>2010-01-01T01:55:26Z</time>
      </trkpt>
      <trkpt lat="50.24397610" lon="14.31649450">
        <ele>159.71618</ele>
        <time>2010-01-01T01:55:44Z</time>
      </trkpt>
      <trkpt lat="50.24384740" lon="14.31677340">
        <ele>159.71618</ele>
        <time>2010-01-01T01:55:49Z</time>
      </trkpt>
      <trkpt lat="50.24341820" lon="14.31771760">
        <ele>157.79357</ele>
        <time>2010-01-01T01:56:08Z</time>
      </trkpt>
      <trkpt lat="50.24316070" lon="14.31842570">
        <ele>159.71618</ele>
        <time>2010-01-01T01:56:21Z</time>
      </trkpt>
      <trkpt lat="50.24275300" lon="14.31962730">
        <ele>160.67749</ele>
        <time>2010-01-01T01:56:42Z</time>
      </trkpt>
      <trkpt lat="50.24273160" lon="14.31969170">
        <ele>160.19689</ele>
        <time>2010-01-01T01:56:43Z</time>
      </trkpt>
      <trkpt lat="50.24232390" lon="14.32080750">
        <ele>160.67749</ele>
        <time>2010-01-01T01:57:04Z</time>
      </trkpt>
      <trkpt lat="50.24238820" lon="14.32097910">
        <ele>162.11950</ele>
        <time>2010-01-01T01:57:07Z</time>
      </trkpt>
      <trkpt lat="50.24225950" lon="14.32100060">
        <ele>162.60009</ele>
        <time>2010-01-01T01:57:10Z</time>
      </trkpt>
      <trkpt lat="50.24213080" lon="14.32130100">
        <ele>162.60009</ele>
        <time>2010-01-01T01:57:16Z</time>
      </trkpt>
      <trkpt lat="50.24157290" lon="14.32239530">
        <ele>161.15820</ele>
        <time>2010-01-01T01:57:38Z</time>
      </trkpt>
      <trkpt lat="50.24118660" lon="14.32314630">
        <ele>161.15820</ele>
        <time>2010-01-01T01:57:54Z</time>
      </trkpt>
      <trkpt lat="50.24080040" lon="14.32389740">
        <ele>161.63891</ele>
        <time>2010-01-01T01:58:09Z</time>
      </trkpt>
      <trkpt lat="50.24000640" lon="14.32544230">
        <ele>158.27416</ele>
        <time>2010-01-01T01:58:40Z</time>
      </trkpt>
      <trkpt lat="50.23983480" lon="14.32576420">
        <ele>157.79357</ele>
        <time>2010-01-01T01:58:47Z</time>
      </trkpt>
      <trkpt lat="50.23977040" lon="14.32591440">
        <ele>157.31286</ele>
        <time>2010-01-01T01:58:50Z</time>
      </trkpt>
      <trkpt lat="50.23925540" lon="14.32688000">
        <ele>156.35156</ele>
        <time>2010-01-01T01:59:10Z</time>
      </trkpt>
      <trkpt lat="50.23871900" lon="14.32844640">
        <ele>153.94836</ele>
        <time>2010-01-01T01:59:38Z</time>
      </trkpt>
      <trkpt lat="50.23822550" lon="14.32981970">
        <ele>152.98693</ele>
        <time>2010-01-01T02:00:03Z</time>
      </trkpt>
      <trkpt lat="50.23811820" lon="14.32994840">
        <ele>153.94836</ele>
        <time>2010-01-01T02:00:07Z</time>
      </trkpt>
      <trkpt lat="50.23796800" lon="14.33018450">
        <ele>154.42895</ele>
        <time>2010-01-01T02:00:12Z</time>
      </trkpt>
      <trkpt lat="50.23732420" lon="14.33106420">
        <ele>154.42895</ele>
        <time>2010-01-01T02:00:33Z</time>
      </trkpt>
      <trkpt lat="50.23693800" lon="14.33160070">
        <ele>156.35156</ele>
        <time>2010-01-01T02:00:46Z</time>
      </trkpt>
      <trkpt lat="50.23659470" lon="14.33207270">
        <ele>156.83215</ele>
        <time>2010-01-01T02:00:58Z</time>
      </trkpt>
      <trkpt lat="50.23653030" lon="14.33218000">
        <ele>156.83215</ele>
        <time>2010-01-01T02:01:00Z</time>
      </trkpt>
      <trkpt lat="50.23597240" lon="14.33295250">
        <ele>158.27416</ele>
        <time>2010-01-01T02:01:18Z</time>
      </trkpt>
      <trkpt lat="50.23595090" lon="14.33299540">
        <ele>158.27416</ele>
        <time>2010-01-01T02:01:19Z</time>
      </trkpt>
      <trkpt lat="50.23524280" lon="14.33398250">
        <ele>158.75476</ele>
        <time>2010-01-01T02:01:43Z</time>
      </trkpt>
      <trkpt lat="50.23427720" lon="14.33499100">
        <ele>157.79357</ele>
        <time>2010-01-01T02:02:12Z</time>
      </trkpt>
      <trkpt lat="50.23378370" lon="14.33561330">
        <ele>157.79357</ele>
        <time>2010-01-01T02:02:28Z</time>
      </trkpt>
      <trkpt lat="50.23344040" lon="14.33664320">
        <ele>158.27416</ele>
        <time>2010-01-01T02:02:46Z</time>
      </trkpt>
      <trkpt lat="50.23268940" lon="14.33698650">
        <ele>160.19689</ele>
        <time>2010-01-01T02:03:06Z</time>
      </trkpt>
      <trkpt lat="50.23247480" lon="14.33739420">
        <ele>160.67749</ele>
        <time>2010-01-01T02:03:14Z</time>
      </trkpt>
      <trkpt lat="50.23230310" lon="14.33778050">
        <ele>160.67749</ele>
        <time>2010-01-01T02:03:21Z</time>
      </trkpt>
      <trkpt lat="50.23236750" lon="14.33896060">
        <ele>160.19689</ele>
        <time>2010-01-01T02:03:40Z</time>
      </trkpt>
      <trkpt lat="50.23243190" lon="14.33966880">
        <ele>159.23547</ele>
        <time>2010-01-01T02:03:52Z</time>
      </trkpt>
      <trkpt lat="50.23251770" lon="14.34072020">
        <ele>159.71618</ele>
        <time>2010-01-01T02:04:08Z</time>
      </trkpt>
      <trkpt lat="50.23241040" lon="14.34087040">
        <ele>160.19689</ele>
        <time>2010-01-01T02:04:12Z</time>
      </trkpt>
      <trkpt lat="50.23208860" lon="14.34099910">
        <ele>159.23547</ele>
        <time>2010-01-01T02:04:20Z</time>
      </trkpt>
      <trkpt lat="50.23135900" lon="14.34151410">
        <ele>159.23547</ele>
        <time>2010-01-01T02:04:40Z</time>
      </trkpt>
      <trkpt lat="50.23088690" lon="14.34256550">
        <ele>157.79357</ele>
        <time>2010-01-01T02:05:01Z</time>
      </trkpt>
      <trkpt lat="50.23043630" lon="14.34393880">
        <ele>157.79357</ele>
        <time>2010-01-01T02:05:25Z</time>
      </trkpt>
      <trkpt lat="50.22989990" lon="14.34556960">
        <ele>157.79357</ele>
        <time>2010-01-01T02:05:54Z</time>
      </trkpt>
      <trkpt lat="50.22936340" lon="14.34709310">
        <ele>158.27416</ele>
        <time>2010-01-01T02:06:22Z</time>
      </trkpt>
      <trkpt lat="50.22884850" lon="14.34823040">
        <ele>158.75476</ele>
        <time>2010-01-01T02:06:44Z</time>
      </trkpt>
      <trkpt lat="50.22835490" lon="14.34934620">
        <ele>157.79357</ele>
        <time>2010-01-01T02:07:06Z</time>
      </trkpt>
      <trkpt lat="50.22766830" lon="14.35020450">
        <ele>158.75476</ele>
        <time>2010-01-01T02:07:28Z</time>
      </trkpt>
      <trkpt lat="50.22685290" lon="14.35108420">
        <ele>158.27416</ele>
        <time>2010-01-01T02:07:52Z</time>
      </trkpt>
      <trkpt lat="50.22646670" lon="14.35151340">
        <ele>158.27416</ele>
        <time>2010-01-01T02:08:04Z</time>
      </trkpt>
      <trkpt lat="50.22629500" lon="14.35162070">
        <ele>157.79357</ele>
        <time>2010-01-01T02:08:09Z</time>
      </trkpt>
      <trkpt lat="50.22614480" lon="14.35168500">
        <ele>157.31286</ele>
        <time>2010-01-01T02:08:13Z</time>
      </trkpt>
      <trkpt lat="50.22578000" lon="14.35185670">
        <ele>156.83215</ele>
        <time>2010-01-01T02:08:22Z</time>
      </trkpt>
      <trkpt lat="50.22485730" lon="14.35224290">
        <ele>157.79357</ele>
        <time>2010-01-01T02:08:46Z</time>
      </trkpt>
      <trkpt lat="50.22382740" lon="14.35269360">
        <ele>159.71618</ele>
        <time>2010-01-01T02:09:13Z</time>
      </trkpt>
      <trkpt lat="50.22380590" lon="14.35271500">
        <ele>164.52270</ele>
        <time>2010-01-01T02:09:13Z</time>
      </trkpt>
      <trkpt lat="50.22329090" lon="14.35292960">
        <ele>165.48413</ele>
        <time>2010-01-01T02:09:26Z</time>
      </trkpt>
      <trkpt lat="50.22236820" lon="14.35329440">
        <ele>163.56152</ele>
        <time>2010-01-01T02:09:50Z</time>
      </trkpt>
      <trkpt lat="50.22166010" lon="14.35338020">
        <ele>162.60009</ele>
        <time>2010-01-01T02:10:08Z</time>
      </trkpt>
      <trkpt lat="50.22052290" lon="14.35348750">
        <ele>161.63891</ele>
        <time>2010-01-01T02:10:36Z</time>
      </trkpt>
      <trkpt lat="50.21940710" lon="14.35359480">
        <ele>162.11950</ele>
        <time>2010-01-01T02:11:04Z</time>
      </trkpt>
      <trkpt lat="50.21833420" lon="14.35378790">
        <ele>162.60009</ele>
        <time>2010-01-01T02:11:31Z</time>
      </trkpt>
      <trkpt lat="50.21751880" lon="14.35404540">
        <ele>163.08081</ele>
        <time>2010-01-01T02:11:51Z</time>
      </trkpt>
      <trkpt lat="50.21745440" lon="14.35406680">
        <ele>163.08081</ele>
        <time>2010-01-01T02:11:53Z</time>
      </trkpt>
      <trkpt lat="50.21728280" lon="14.35413120">
        <ele>162.60009</ele>
        <time>2010-01-01T02:11:58Z</time>
      </trkpt>
      <trkpt lat="50.21651030" lon="14.35438870">
        <ele>163.56152</ele>
        <time>2010-01-01T02:12:17Z</time>
      </trkpt>
      <trkpt lat="50.21633860" lon="14.35451750">
        <ele>164.04211</ele>
        <time>2010-01-01T02:12:22Z</time>
      </trkpt>
      <trkpt lat="50.21567340" lon="14.35496810">
        <ele>164.52270</ele>
        <time>2010-01-01T02:12:40Z</time>
      </trkpt>
      <trkpt lat="50.21505120" lon="14.35537580">
        <ele>165.00341</ele>
        <time>2010-01-01T02:12:57Z</time>
      </trkpt>
      <trkpt lat="50.21440740" lon="14.35582640">
        <ele>166.44531</ele>
        <time>2010-01-01T02:13:14Z</time>
      </trkpt>
      <trkpt lat="50.21382810" lon="14.35621260">
        <ele>165.48413</ele>
        <time>2010-01-01T02:13:30Z</time>
      </trkpt>
      <trkpt lat="50.21301270" lon="14.35677050">
        <ele>165.00341</ele>
        <time>2010-01-01T02:13:52Z</time>
      </trkpt>
      <trkpt lat="50.21226170" lon="14.35728550">
        <ele>165.48413</ele>
        <time>2010-01-01T02:14:12Z</time>
      </trkpt>
      <trkpt lat="50.21146770" lon="14.35780050">
        <ele>166.44531</ele>
        <time>2010-01-01T02:14:34Z</time>
      </trkpt>
      <trkpt lat="50.21082400" lon="14.35840130">
        <ele>166.44531</ele>
        <time>2010-01-01T02:14:53Z</time>
      </trkpt>
      <trkpt lat="50.21039490" lon="14.35883050">
        <ele>167.40673</ele>
        <time>2010-01-01T02:15:05Z</time>
      </trkpt>
      <trkpt lat="50.20979400" lon="14.35943130">
        <ele>167.88732</ele>
        <time>2010-01-01T02:15:23Z</time>
      </trkpt>
      <trkpt lat="50.20906450" lon="14.36016080">
        <ele>168.36804</ele>
        <time>2010-01-01T02:15:45Z</time>
      </trkpt>
      <trkpt lat="50.20822760" lon="14.36125520">
        <ele>169.32946</ele>
        <time>2010-01-01T02:16:12Z</time>
      </trkpt>
      <trkpt lat="50.20747660" lon="14.36234950">
        <ele>169.32946</ele>
        <time>2010-01-01T02:16:37Z</time>
      </trkpt>
      <trkpt lat="50.20721910" lon="14.36275720">
        <ele>169.81005</ele>
        <time>2010-01-01T02:16:46Z</time>
      </trkpt>
      <trkpt lat="50.20717620" lon="14.36284300">
        <ele>169.81005</ele>
        <time>2010-01-01T02:16:48Z</time>
      </trkpt>
      <trkpt lat="50.20702600" lon="14.36303620">
        <ele>169.32946</ele>
        <time>2010-01-01T02:16:53Z</time>
      </trkpt>
      <trkpt lat="50.20700450" lon="14.36307910">
        <ele>168.84875</ele>
        <time>2010-01-01T02:16:54Z</time>
      </trkpt>
      <trkpt lat="50.20679000" lon="14.36340090">
        <ele>166.44531</ele>
        <time>2010-01-01T02:17:01Z</time>
      </trkpt>
      <trkpt lat="50.20603900" lon="14.36389450">
        <ele>164.52270</ele>
        <time>2010-01-01T02:17:21Z</time>
      </trkpt>
      <trkpt lat="50.20515920" lon="14.36434510">
        <ele>164.52270</ele>
        <time>2010-01-01T02:17:44Z</time>
      </trkpt>
      <trkpt lat="50.20460130" lon="14.36462400">
        <ele>162.60009</ele>
        <time>2010-01-01T02:17:59Z</time>
      </trkpt>
      <trkpt lat="50.20445110" lon="14.36468840">
        <ele>162.60009</ele>
        <time>2010-01-01T02:18:03Z</time>
      </trkpt>
      <trkpt lat="50.20425800" lon="14.36479570">
        <ele>162.60009</ele>
        <time>2010-01-01T02:18:08Z</time>
      </trkpt>
      <trkpt lat="50.20438670" lon="14.36518190">
        <ele>171.73266</ele>
        <time>2010-01-01T02:18:15Z</time>
      </trkpt>
      <trkpt lat="50.20470860" lon="14.36573980">
        <ele>171.73266</ele>
        <time>2010-01-01T02:18:27Z</time>
      </trkpt>
      <trkpt lat="50.20520210" lon="14.36657670">
        <ele>175.09729</ele>
        <time>2010-01-01T02:18:45Z</time>
      </trkpt>
      <trkpt lat="50.20558830" lon="14.36728480">
        <ele>180.38452</ele>
        <time>2010-01-01T02:19:00Z</time>
      </trkpt>
      <trkpt lat="50.20597460" lon="14.36792850">
        <ele>179.90380</ele>
        <time>2010-01-01T02:19:14Z</time>
      </trkpt>
      <trkpt lat="50.20625350" lon="14.36857220">
        <ele>177.02001</ele>
        <time>2010-01-01T02:19:26Z</time>
      </trkpt>
      <trkpt lat="50.20661830" lon="14.36983820">
        <ele>182.78784</ele>
        <time>2010-01-01T02:19:48Z</time>
      </trkpt>
      <trkpt lat="50.20713330" lon="14.37189820">
        <ele>181.82641</ele>
        <time>2010-01-01T02:20:24Z</time>
      </trkpt>
      <trkpt lat="50.20681140" lon="14.37239170">
        <ele>182.78784</ele>
        <time>2010-01-01T02:20:35Z</time>
      </trkpt>
      <trkpt lat="50.20614620" lon="14.37361480">
        <ele>183.74902</ele>
        <time>2010-01-01T02:21:00Z</time>
      </trkpt>
      <trkpt lat="50.20614620" lon="14.37546010">
        <ele>184.22985</ele>
        <time>2010-01-01T02:21:30Z</time>
      </trkpt>
      <trkpt lat="50.20614620" lon="14.37801360">
        <ele>184.22985</ele>
        <time>2010-01-01T02:22:10Z</time>
      </trkpt>
      <trkpt lat="50.20614620" lon="14.38018080">
        <ele>187.11376</ele>
        <time>2010-01-01T02:22:45Z</time>
      </trkpt>
      <trkpt lat="50.20614620" lon="14.38382860">
        <ele>189.03637</ele>
        <time>2010-01-01T02:23:43Z</time>
      </trkpt>
      <trkpt lat="50.20614620" lon="14.38588860">
        <ele>193.36230</ele>
        <time>2010-01-01T02:24:16Z</time>
      </trkpt>
      <trkpt lat="50.20614620" lon="14.38779830">
        <ele>191.43957</ele>
        <time>2010-01-01T02:24:46Z</time>
      </trkpt>
      <trkpt lat="50.20603900" lon="14.38906430">
        <ele>198.64953</ele>
        <time>2010-01-01T02:25:07Z</time>
      </trkpt>
      <trkpt lat="50.20548110" lon="14.38994410">
        <ele>200.09167</ele>
        <time>2010-01-01T02:25:26Z</time>
      </trkpt>
      <trkpt lat="50.20496610" lon="14.39035180">
        <ele>209.22412</ele>
        <time>2010-01-01T02:25:41Z</time>
      </trkpt>
      <trkpt lat="50.20490170" lon="14.39123150">
        <ele>213.06933</ele>
        <time>2010-01-01T02:25:55Z</time>
      </trkpt>
      <trkpt lat="50.20528790" lon="14.39234730">
        <ele>215.95324</ele>
        <time>2010-01-01T02:26:15Z</time>
      </trkpt>
      <trkpt lat="50.20543810" lon="14.39273360">
        <ele>225.56652</ele>
        <time>2010-01-01T02:26:22Z</time>
      </trkpt>
      <trkpt lat="50.20569560" lon="14.39361330">
        <ele>224.12451</ele>
        <time>2010-01-01T02:26:38Z</time>
      </trkpt>
      <trkpt lat="50.20586730" lon="14.39442870">
        <ele>225.08593</ele>
        <time>2010-01-01T02:26:51Z</time>
      </trkpt>
      <trkpt lat="50.20597460" lon="14.39496520">
        <ele>227.00854</ele>
        <time>2010-01-01T02:27:00Z</time>
      </trkpt>
      <trkpt lat="50.20586730" lon="14.39584490">
        <ele>227.48913</ele>
        <time>2010-01-01T02:27:14Z</time>
      </trkpt>
      <trkpt lat="50.20586730" lon="14.39674620">
        <ele>227.48913</ele>
        <time>2010-01-01T02:27:29Z</time>
      </trkpt>
      <trkpt lat="50.20608190" lon="14.39792630">
        <ele>229.89233</ele>
        <time>2010-01-01T02:27:48Z</time>
      </trkpt>
      <trkpt lat="50.20610330" lon="14.39799070">
        <ele>229.89233</ele>
        <time>2010-01-01T02:27:49Z</time>
      </trkpt>
      <trkpt lat="50.20614620" lon="14.39835550">
        <ele>229.41174</ele>
        <time>2010-01-01T02:27:55Z</time>
      </trkpt>
      <trkpt lat="50.20614620" lon="14.39854860">
        <ele>228.93115</ele>
        <time>2010-01-01T02:27:58Z</time>
      </trkpt>
      <trkpt lat="50.20603900" lon="14.39863440">
        <ele>228.45043</ele>
        <time>2010-01-01T02:28:01Z</time>
      </trkpt>
      <trkpt lat="50.20584580" lon="14.39869880">
        <ele>227.96972</ele>
        <time>2010-01-01T02:28:06Z</time>
      </trkpt>
      <trkpt lat="50.20515920" lon="14.39889190">
        <ele>228.93115</ele>
        <time>2010-01-01T02:28:24Z</time>
      </trkpt>
      <trkpt lat="50.20468710" lon="14.39902070">
        <ele>232.29577</ele>
        <time>2010-01-01T02:28:36Z</time>
      </trkpt>
      <trkpt lat="50.20425800" lon="14.39914940">
        <ele>236.62170</ele>
        <time>2010-01-01T02:28:47Z</time>
      </trkpt>
      <trkpt lat="50.20378590" lon="14.39927820">
        <ele>239.50549</ele>
        <time>2010-01-01T02:28:58Z</time>
      </trkpt>
      <trkpt lat="50.20335670" lon="14.39957860">
        <ele>241.42822</ele>
        <time>2010-01-01T02:29:10Z</time>
      </trkpt>
      <trkpt lat="50.20307780" lon="14.40009360">
        <ele>243.35083</ele>
        <time>2010-01-01T02:29:21Z</time>
      </trkpt>
      <trkpt lat="50.20288470" lon="14.40050130">
        <ele>245.75415</ele>
        <time>2010-01-01T02:29:29Z</time>
      </trkpt>
      <trkpt lat="50.20243410" lon="14.40058710">
        <ele>246.71545</ele>
        <time>2010-01-01T02:29:40Z</time>
      </trkpt>
      <trkpt lat="50.20209070" lon="14.40065150">
        <ele>250.56079</ele>
        <time>2010-01-01T02:29:49Z</time>
      </trkpt>
      <trkpt lat="50.20170450" lon="14.40073730">
        <ele>251.04138</ele>
        <time>2010-01-01T02:29:59Z</time>
      </trkpt>
      <trkpt lat="50.20108220" lon="14.40086600">
        <ele>250.08020</ele>
        <time>2010-01-01T02:30:14Z</time>
      </trkpt>
      <trkpt lat="50.20091060" lon="14.40088750">
        <ele>250.08020</ele>
        <time>2010-01-01T02:30:18Z</time>
      </trkpt>
      <trkpt lat="50.19992350" lon="14.40110210">
        <ele>250.08020</ele>
        <time>2010-01-01T02:30:43Z</time>
      </trkpt>
      <trkpt lat="50.19923690" lon="14.40133810">
        <ele>252.00280</ele>
        <time>2010-01-01T02:31:01Z</time>
      </trkpt>
      <trkpt lat="50.19876480" lon="14.40168140">
        <ele>252.00280</ele>
        <time>2010-01-01T02:31:14Z</time>
      </trkpt>
      <trkpt lat="50.19824980" lon="14.40211060">
        <ele>253.44470</ele>
        <time>2010-01-01T02:31:28Z</time>
      </trkpt>
      <trkpt lat="50.19816400" lon="14.40163850">
        <ele>254.88659</ele>
        <time>2010-01-01T02:31:36Z</time>
      </trkpt>
      <trkpt lat="50.19824980" lon="14.40080170">
        <ele>256.80932</ele>
        <time>2010-01-01T02:31:50Z</time>
      </trkpt>
      <trkpt lat="50.19820690" lon="14.40009360">
        <ele>261.13525</ele>
        <time>2010-01-01T02:32:01Z</time>
      </trkpt>
      <trkpt lat="50.19786360" lon="14.39960000">
        <ele>264.49987</ele>
        <time>2010-01-01T02:32:12Z</time>
      </trkpt>
      <trkpt lat="50.19747730" lon="14.39940690">
        <ele>266.90319</ele>
        <time>2010-01-01T02:32:23Z</time>
      </trkpt>
      <trkpt lat="50.19711260" lon="14.39966440">
        <ele>269.78710</ele>
        <time>2010-01-01T02:32:33Z</time>
      </trkpt>
      <trkpt lat="50.19666190" lon="14.39962150">
        <ele>271.22912</ele>
        <time>2010-01-01T02:32:44Z</time>
      </trkpt>
      <trkpt lat="50.19582510" lon="14.39895630">
        <ele>270.74841</ele>
        <time>2010-01-01T02:33:07Z</time>
      </trkpt>
      <trkpt lat="50.19503120" lon="14.39841990">
        <ele>271.70971</ele>
        <time>2010-01-01T02:33:29Z</time>
      </trkpt>
      <trkpt lat="50.19436600" lon="14.39801220">
        <ele>274.11303</ele>
        <time>2010-01-01T02:33:46Z</time>
      </trkpt>
      <trkpt lat="50.19378660" lon="14.39764740">
        <ele>275.55505</ele>
        <time>2010-01-01T02:34:02Z</time>
      </trkpt>
      <trkpt lat="50.19297120" lon="14.39713240">
        <ele>276.51635</ele>
        <time>2010-01-01T02:34:24Z</time>
      </trkpt>
      <trkpt lat="50.19277810" lon="14.39702510">
        <ele>276.51635</ele>
        <time>2010-01-01T02:34:29Z</time>
      </trkpt>
      <trkpt lat="50.19211290" lon="14.39623120">
        <ele>276.03564</ele>
        <time>2010-01-01T02:34:50Z</time>
      </trkpt>
      <trkpt lat="50.19131900" lon="14.39511540">
        <ele>275.55505</ele>
        <time>2010-01-01T02:35:16Z</time>
      </trkpt>
      <trkpt lat="50.19048210" lon="14.39391370">
        <ele>276.03564</ele>
        <time>2010-01-01T02:35:45Z</time>
      </trkpt>
      <trkpt lat="50.18979550" lon="14.39290520">
        <ele>277.47766</ele>
        <time>2010-01-01T02:36:08Z</time>
      </trkpt>
      <trkpt lat="50.18882990" lon="14.39155340">
        <ele>277.95825</ele>
        <time>2010-01-01T02:36:40Z</time>
      </trkpt>
      <trkpt lat="50.18801450" lon="14.39039470">
        <ele>276.99707</ele>
        <time>2010-01-01T02:37:08Z</time>
      </trkpt>
      <trkpt lat="50.18737080" lon="14.38945060">
        <ele>276.03564</ele>
        <time>2010-01-01T02:37:30Z</time>
      </trkpt>
      <trkpt lat="50.18696310" lon="14.38887120">
        <ele>275.55505</ele>
        <time>2010-01-01T02:37:43Z</time>
      </trkpt>
      <trkpt lat="50.18692020" lon="14.38882830">
        <ele>275.07446</ele>
        <time>2010-01-01T02:37:45Z</time>
      </trkpt>
      <trkpt lat="50.18679140" lon="14.38906430">
        <ele>275.07446</ele>
        <time>2010-01-01T02:37:50Z</time>
      </trkpt>
      <trkpt lat="50.18634080" lon="14.38994410">
        <ele>273.63244</ele>
        <time>2010-01-01T02:38:08Z</time>
      </trkpt>
      <trkpt lat="50.18556830" lon="14.39140320">
        <ele>270.74841</ele>
        <time>2010-01-01T02:38:38Z</time>
      </trkpt>
      <trkpt lat="50.18490310" lon="14.39266920">
        <ele>268.82580</ele>
        <time>2010-01-01T02:39:04Z</time>
      </trkpt>
      <trkpt lat="50.18413070" lon="14.39414980">
        <ele>266.42248</ele>
        <time>2010-01-01T02:39:34Z</time>
      </trkpt>
      <trkpt lat="50.18342260" lon="14.39548020">
        <ele>265.94189</ele>
        <time>2010-01-01T02:40:02Z</time>
      </trkpt>
      <trkpt lat="50.18265010" lon="14.39698220">
        <ele>267.38391</ele>
        <time>2010-01-01T02:40:33Z</time>
      </trkpt>
      <trkpt lat="50.18198490" lon="14.39822670">
        <ele>266.90319</ele>
        <time>2010-01-01T02:40:58Z</time>
      </trkpt>
      <trkpt lat="50.18136260" lon="14.39938550">
        <ele>269.78710</ele>
        <time>2010-01-01T02:41:22Z</time>
      </trkpt>
      <trkpt lat="50.18078330" lon="14.40013650">
        <ele>270.26770</ele>
        <time>2010-01-01T02:41:41Z</time>
      </trkpt>
      <trkpt lat="50.18018250" lon="14.40095190">
        <ele>271.22912</ele>
        <time>2010-01-01T02:42:01Z</time>
      </trkpt>
      <trkpt lat="50.17990350" lon="14.40131660">
        <ele>270.26770</ele>
        <time>2010-01-01T02:42:10Z</time>
      </trkpt>
      <trkpt lat="50.17988200" lon="14.40135960">
        <ele>272.19042</ele>
        <time>2010-01-01T02:42:11Z</time>
      </trkpt>
      <trkpt lat="50.17966750" lon="14.40163850">
        <ele>272.19042</ele>
        <time>2010-01-01T02:42:18Z</time>
      </trkpt>
      <trkpt lat="50.17947440" lon="14.40189600">
        <ele>270.26770</ele>
        <time>2010-01-01T02:42:24Z</time>
      </trkpt>
      <trkpt lat="50.17936710" lon="14.40202470">
        <ele>269.78710</ele>
        <time>2010-01-01T02:42:28Z</time>
      </trkpt>
      <trkpt lat="50.17859460" lon="14.40299030">
        <ele>266.90319</ele>
        <time>2010-01-01T02:42:52Z</time>
      </trkpt>
      <trkpt lat="50.17799380" lon="14.40517900">
        <ele>266.42248</ele>
        <time>2010-01-01T02:43:30Z</time>
      </trkpt>
      <trkpt lat="50.17784360" lon="14.40599440">
        <ele>265.46130</ele>
        <time>2010-01-01T02:43:44Z</time>
      </trkpt>
      <trkpt lat="50.17747880" lon="14.40801140">
        <ele>264.01928</ele>
        <time>2010-01-01T02:44:17Z</time>
      </trkpt>
      <trkpt lat="50.17747880" lon="14.40906290">
        <ele>264.01928</ele>
        <time>2010-01-01T02:44:34Z</time>
      </trkpt>
      <trkpt lat="50.17747880" lon="14.41037180">
        <ele>261.13525</ele>
        <time>2010-01-01T02:44:55Z</time>
      </trkpt>
      <trkpt lat="50.17747880" lon="14.41047910">
        <ele>263.05786</ele>
        <time>2010-01-01T02:44:56Z</time>
      </trkpt>
      <trkpt lat="50.17747880" lon="14.41058640">
        <ele>264.01928</ele>
        <time>2010-01-01T02:44:58Z</time>
      </trkpt>
      <trkpt lat="50.17747880" lon="14.41090820">
        <ele>263.53857</ele>
        <time>2010-01-01T02:45:03Z</time>
      </trkpt>
      <trkpt lat="50.17747880" lon="14.41165920">
        <ele>261.13525</ele>
        <time>2010-01-01T02:45:15Z</time>
      </trkpt>
      <trkpt lat="50.17735000" lon="14.41260340">
        <ele>259.69335</ele>
        <time>2010-01-01T02:45:30Z</time>
      </trkpt>
      <trkpt lat="50.17715690" lon="14.41449170">
        <ele>257.77075</ele>
        <time>2010-01-01T02:46:01Z</time>
      </trkpt>
      <trkpt lat="50.17719980" lon="14.41483500">
        <ele>257.29003</ele>
        <time>2010-01-01T02:46:07Z</time>
      </trkpt>
      <trkpt lat="50.17737150" lon="14.41580060">
        <ele>258.25134</ele>
        <time>2010-01-01T02:46:22Z</time>
      </trkpt>
      <trkpt lat="50.17737150" lon="14.41723820">
        <ele>257.77075</ele>
        <time>2010-01-01T02:46:45Z</time>
      </trkpt>
      <trkpt lat="50.17735000" lon="14.41740990">
        <ele>257.29003</ele>
        <time>2010-01-01T02:46:48Z</time>
      </trkpt>
      <trkpt lat="50.17719980" lon="14.41732410">
        <ele>255.84802</ele>
        <time>2010-01-01T02:46:52Z</time>
      </trkpt>
      <trkpt lat="50.17702820" lon="14.41642280">
        <ele>252.00280</ele>
        <time>2010-01-01T02:47:07Z</time>
      </trkpt>
      <trkpt lat="50.17683510" lon="14.41545720">
        <ele>248.15759</ele>
        <time>2010-01-01T02:47:23Z</time>
      </trkpt>
      <trkpt lat="50.17634150" lon="14.41477060">
        <ele>246.71545</ele>
        <time>2010-01-01T02:47:40Z</time>
      </trkpt>
      <trkpt lat="50.17567630" lon="14.41401960">
        <ele>245.75415</ele>
        <time>2010-01-01T02:48:00Z</time>
      </trkpt>
      <trkpt lat="50.17544030" lon="14.41350460">
        <ele>243.35083</ele>
        <time>2010-01-01T02:48:10Z</time>
      </trkpt>
      <trkpt lat="50.17544030" lon="14.41339730">
        <ele>242.87023</ele>
        <time>2010-01-01T02:48:12Z</time>
      </trkpt>
      <trkpt lat="50.17552610" lon="14.41234590">
        <ele>242.38964</ele>
        <time>2010-01-01T02:48:29Z</time>
      </trkpt>
      <trkpt lat="50.17554760" lon="14.41213130">
        <ele>242.38964</ele>
        <time>2010-01-01T02:48:32Z</time>
      </trkpt>
      <trkpt lat="50.17559050" lon="14.41157340">
        <ele>239.50549</ele>
        <time>2010-01-01T02:48:41Z</time>
      </trkpt>
      <trkpt lat="50.17604110" lon="14.41060780">
        <ele>232.29577</ele>
        <time>2010-01-01T02:49:00Z</time>
      </trkpt>
      <trkpt lat="50.17571930" lon="14.41007140">
        <ele>229.41174</ele>
        <time>2010-01-01T02:49:12Z</time>
      </trkpt>
      <trkpt lat="50.17565490" lon="14.41000700">
        <ele>228.93115</ele>
        <time>2010-01-01T02:49:14Z</time>
      </trkpt>
      <trkpt lat="50.17535450" lon="14.40968510">
        <ele>227.48913</ele>
        <time>2010-01-01T02:49:23Z</time>
      </trkpt>
      <trkpt lat="50.17524720" lon="14.40951350">
        <ele>227.00854</ele>
        <time>2010-01-01T02:49:27Z</time>
      </trkpt>
      <trkpt lat="50.17430310" lon="14.40816160">
        <ele>222.20178</ele>
        <time>2010-01-01T02:49:59Z</time>
      </trkpt>
      <trkpt lat="50.17368080" lon="14.40786120">
        <ele>221.72119</ele>
        <time>2010-01-01T02:50:15Z</time>
      </trkpt>
      <trkpt lat="50.17338040" lon="14.40734620">
        <ele>221.72119</ele>
        <time>2010-01-01T02:50:26Z</time>
      </trkpt>
      <trkpt lat="50.17320870" lon="14.40700290">
        <ele>221.24060</ele>
        <time>2010-01-01T02:50:33Z</time>
      </trkpt>
      <trkpt lat="50.17310140" lon="14.40674540">
        <ele>220.27917</ele>
        <time>2010-01-01T02:50:38Z</time>
      </trkpt>
      <trkpt lat="50.17267230" lon="14.40582280">
        <ele>220.27917</ele>
        <time>2010-01-01T02:50:56Z</time>
      </trkpt>
      <trkpt lat="50.17254350" lon="14.40532920">
        <ele>215.47265</ele>
        <time>2010-01-01T02:51:04Z</time>
      </trkpt>
      <trkpt lat="50.17245770" lon="14.40496440">
        <ele>212.10803</ele>
        <time>2010-01-01T02:51:11Z</time>
      </trkpt>
      <trkpt lat="50.17239330" lon="14.40472840">
        <ele>210.66601</ele>
        <time>2010-01-01T02:51:15Z</time>
      </trkpt>
      <trkpt lat="50.17200710" lon="14.40440650">
        <ele>208.26281</ele>
        <time>2010-01-01T02:51:26Z</time>
      </trkpt>
      <trkpt lat="50.17187830" lon="14.40438510">
        <ele>207.78210</ele>
        <time>2010-01-01T02:51:29Z</time>
      </trkpt>
      <trkpt lat="50.17153500" lon="14.40432070">
        <ele>204.89807</ele>
        <time>2010-01-01T02:51:37Z</time>
      </trkpt>
      <trkpt lat="50.17125610" lon="14.40406320">
        <ele>201.05285</ele>
        <time>2010-01-01T02:51:45Z</time>
      </trkpt>
      <trkpt lat="50.17121320" lon="14.40382720">
        <ele>200.09167</ele>
        <time>2010-01-01T02:51:49Z</time>
      </trkpt>
      <trkpt lat="50.17114880" lon="14.40350530">
        <ele>198.64953</ele>
        <time>2010-01-01T02:51:55Z</time>
      </trkpt>
      <trkpt lat="50.17095570" lon="14.40256120">
        <ele>191.92028</ele>
        <time>2010-01-01T02:52:11Z</time>
      </trkpt>
      <trkpt lat="50.17074110" lon="14.40271140">
        <ele>187.59436</ele>
        <time>2010-01-01T02:52:16Z</time>
      </trkpt>
      <trkpt lat="50.17001150" lon="14.40318350">
        <ele>177.02001</ele>
        <time>2010-01-01T02:52:36Z</time>
      </trkpt>
      <trkpt lat="50.16915320" lon="14.40391300">
        <ele>171.25207</ele>
        <time>2010-01-01T02:53:00Z</time>
      </trkpt>
      <trkpt lat="50.16904590" lon="14.40399890">
        <ele>170.77136</ele>
        <time>2010-01-01T02:53:03Z</time>
      </trkpt>
      <trkpt lat="50.16835930" lon="14.40436360">
        <ele>166.92602</ele>
        <time>2010-01-01T02:53:21Z</time>
      </trkpt>
      <trkpt lat="50.16827340" lon="14.40438510">
        <ele>166.92602</ele>
        <time>2010-01-01T02:53:24Z</time>
      </trkpt>
      <trkpt lat="50.16818760" lon="14.40440650">
        <ele>166.44531</ele>
        <time>2010-01-01T02:53:26Z</time>
      </trkpt>
      <trkpt lat="50.16803740" lon="14.40444950">
        <ele>166.44531</ele>
        <time>2010-01-01T02:53:30Z</time>
      </trkpt>
      <trkpt lat="50.16782280" lon="14.40451380">
        <ele>165.48413</ele>
        <time>2010-01-01T02:53:35Z</time>
      </trkpt>
      <trkpt lat="50.16773700" lon="14.40455680">
        <ele>165.48413</ele>
        <time>2010-01-01T02:53:37Z</time>
      </trkpt>
      <trkpt lat="50.16717910" lon="14.40464260">
        <ele>164.52270</ele>
        <time>2010-01-01T02:53:51Z</time>
      </trkpt>
      <trkpt lat="50.16705040" lon="14.40466400">
        <ele>164.52270</ele>
        <time>2010-01-01T02:53:54Z</time>
      </trkpt>
      <trkpt lat="50.16670700" lon="14.40472840">
        <ele>164.52270</ele>
        <time>2010-01-01T02:54:03Z</time>
      </trkpt>
      <trkpt lat="50.16664270" lon="14.40474990">
        <ele>164.52270</ele>
        <time>2010-01-01T02:54:05Z</time>
      </trkpt>
      <trkpt lat="50.16657830" lon="14.40474990">
        <ele>165.48413</ele>
        <time>2010-01-01T02:54:06Z</time>
      </trkpt>
      <trkpt lat="50.16625640" lon="14.40277580">
        <ele>166.92602</ele>
        <time>2010-01-01T02:54:39Z</time>
      </trkpt>
      <trkpt lat="50.16623500" lon="14.40273280">
        <ele>166.44531</ele>
        <time>2010-01-01T02:54:40Z</time>
      </trkpt>
      <trkpt lat="50.16614910" lon="14.40262560">
        <ele>166.92602</ele>
        <time>2010-01-01T02:54:42Z</time>
      </trkpt>
      <trkpt lat="50.16610620" lon="14.40256120">
        <ele>167.40673</ele>
        <time>2010-01-01T02:54:44Z</time>
      </trkpt>
      <trkpt lat="50.16595600" lon="14.40232520">
        <ele>167.88732</ele>
        <time>2010-01-01T02:54:49Z</time>
      </trkpt>
      <trkpt lat="50.16582730" lon="14.40181020">
        <ele>167.40673</ele>
        <time>2010-01-01T02:54:58Z</time>
      </trkpt>
      <trkpt lat="50.16550540" lon="14.40133810">
        <ele>167.88732</ele>
        <time>2010-01-01T02:55:09Z</time>
      </trkpt>
      <trkpt lat="50.16505480" lon="14.40097330">
        <ele>169.81005</ele>
        <time>2010-01-01T02:55:22Z</time>
      </trkpt>
      <trkpt lat="50.16449690" lon="14.40047980">
        <ele>171.73266</ele>
        <time>2010-01-01T02:55:37Z</time>
      </trkpt>
      <trkpt lat="50.16374590" lon="14.40047980">
        <ele>168.36804</ele>
        <time>2010-01-01T02:55:56Z</time>
      </trkpt>
      <trkpt lat="50.16305920" lon="14.39992190">
        <ele>167.40673</ele>
        <time>2010-01-01T02:56:15Z</time>
      </trkpt>
      <trkpt lat="50.16271590" lon="14.39964290">
        <ele>167.40673</ele>
        <time>2010-01-01T02:56:25Z</time>
      </trkpt>
      <trkpt lat="50.16202930" lon="14.39895630">
        <ele>168.36804</ele>
        <time>2010-01-01T02:56:45Z</time>
      </trkpt>
      <trkpt lat="50.16200780" lon="14.39895630">
        <ele>167.40673</ele>
        <time>2010-01-01T02:56:46Z</time>
      </trkpt>
      <trkpt lat="50.16187910" lon="14.39887050">
        <ele>167.40673</ele>
        <time>2010-01-01T02:56:49Z</time>
      </trkpt>
      <trkpt lat="50.16134260" lon="14.39857010">
        <ele>173.65527</ele>
        <time>2010-01-01T02:57:04Z</time>
      </trkpt>
      <trkpt lat="50.16057010" lon="14.39814090">
        <ele>177.98120</ele>
        <time>2010-01-01T02:57:24Z</time>
      </trkpt>
      <trkpt lat="50.16024830" lon="14.39809800">
        <ele>181.82641</ele>
        <time>2010-01-01T02:57:32Z</time>
      </trkpt>
      <trkpt lat="50.15951870" lon="14.39760450">
        <ele>178.94262</ele>
        <time>2010-01-01T02:57:52Z</time>
      </trkpt>
      <trkpt lat="50.15853170" lon="14.39786200">
        <ele>177.50061</ele>
        <time>2010-01-01T02:58:17Z</time>
      </trkpt>
      <trkpt lat="50.15836000" lon="14.39790490">
        <ele>177.02001</ele>
        <time>2010-01-01T02:58:21Z</time>
      </trkpt>
      <trkpt lat="50.15823130" lon="14.39792630">
        <ele>176.53930</ele>
        <time>2010-01-01T02:58:24Z</time>
      </trkpt>
      <trkpt lat="50.15805960" lon="14.39738990">
        <ele>175.57788</ele>
        <time>2010-01-01T02:58:34Z</time>
      </trkpt>
      <trkpt lat="50.15801670" lon="14.39738990">
        <ele>173.17468</ele>
        <time>2010-01-01T02:58:35Z</time>
      </trkpt>
      <trkpt lat="50.15799520" lon="14.39741130">
        <ele>172.69396</ele>
        <time>2010-01-01T02:58:35Z</time>
      </trkpt>
      <trkpt lat="50.15803810" lon="14.39749720">
        <ele>170.77136</ele>
        <time>2010-01-01T02:58:37Z</time>
      </trkpt>
    </trkseg>
  </trk>
</gpx>

